<?xml version="1.0" encoding="UTF-8" standalone="no" ?>
<gpx xmlns="http://www.topografix.com/GPX/1/1" xmlns:xsi="http://www.w3.org/2001/XMLSchema-instance" xsi:schemaLocation="http://www.topografix.com/GPX/1/1 http://www.topografix.com/GPX/1/1/gpx.xsd" version="1.1" creator="VisuGPX - https://www.visugpx.com">
  <metadata>
    <name>14030092-boucle et traversée de la sure depuis Curriere</name>
  </metadata>
  <trk>
    <name><![CDATA[14030092-boucle et traversée de la sure depuis Curriere]]></name>
    <trkseg>
      <trkpt lat="45.35799" lon="5.7443">
        <ele>871</ele>
        <time>2021-12-14T16:23:42Z</time>
      </trkpt>
      <trkpt lat="45.35795" lon="5.74429">
        <ele>873</ele>
        <time>2021-12-14T16:23:45Z</time>
      </trkpt>
      <trkpt lat="45.35801" lon="5.74435">
        <ele>870</ele>
        <time>2021-12-14T16:23:51Z</time>
      </trkpt>
      <trkpt lat="45.35798" lon="5.7444">
        <ele>870</ele>
        <time>2021-12-14T16:23:55Z</time>
      </trkpt>
      <trkpt lat="45.35796" lon="5.74453">
        <ele>869</ele>
        <time>2021-12-14T16:24:02Z</time>
      </trkpt>
      <trkpt lat="45.35779" lon="5.74482">
        <ele>871</ele>
        <time>2021-12-14T16:24:24Z</time>
      </trkpt>
      <trkpt lat="45.35725" lon="5.74561">
        <ele>872</ele>
        <time>2021-12-14T16:25:26Z</time>
      </trkpt>
      <trkpt lat="45.35703" lon="5.74599">
        <ele>870</ele>
        <time>2021-12-14T16:25:53Z</time>
      </trkpt>
      <trkpt lat="45.35697" lon="5.74605">
        <ele>871</ele>
        <time>2021-12-14T16:25:59Z</time>
      </trkpt>
      <trkpt lat="45.35649" lon="5.74682">
        <ele>880</ele>
        <time>2021-12-14T16:26:57Z</time>
      </trkpt>
      <trkpt lat="45.35641" lon="5.74699">
        <ele>884</ele>
        <time>2021-12-14T16:27:09Z</time>
      </trkpt>
      <trkpt lat="45.35626" lon="5.74741">
        <ele>894</ele>
        <time>2021-12-14T16:27:35Z</time>
      </trkpt>
      <trkpt lat="45.35621" lon="5.74767">
        <ele>900</ele>
        <time>2021-12-14T16:27:50Z</time>
      </trkpt>
      <trkpt lat="45.35617" lon="5.74801">
        <ele>906</ele>
        <time>2021-12-14T16:28:10Z</time>
      </trkpt>
      <trkpt lat="45.35618" lon="5.74852">
        <ele>911</ele>
        <time>2021-12-14T16:28:38Z</time>
      </trkpt>
      <trkpt lat="45.35621" lon="5.74855">
        <ele>908</ele>
        <time>2021-12-14T16:28:41Z</time>
      </trkpt>
      <trkpt lat="45.35614" lon="5.74864">
        <ele>917</ele>
        <time>2021-12-14T16:28:49Z</time>
      </trkpt>
      <trkpt lat="45.35588" lon="5.74873">
        <ele>949</ele>
        <time>2021-12-14T16:29:10Z</time>
      </trkpt>
      <trkpt lat="45.35359" lon="5.7501">
        <ele>895</ele>
        <time>2021-12-14T16:32:29Z</time>
      </trkpt>
      <trkpt lat="45.35378" lon="5.75013">
        <ele>906</ele>
        <time>2021-12-14T16:32:44Z</time>
      </trkpt>
      <trkpt lat="45.3539" lon="5.7501">
        <ele>914</ele>
        <time>2021-12-14T16:32:54Z</time>
      </trkpt>
      <trkpt lat="45.3539" lon="5.75005">
        <ele>916</ele>
        <time>2021-12-14T16:32:57Z</time>
      </trkpt>
      <trkpt lat="45.35378" lon="5.74993">
        <ele>915</ele>
        <time>2021-12-14T16:33:09Z</time>
      </trkpt>
      <trkpt lat="45.35365" lon="5.74973">
        <ele>920</ele>
        <time>2021-12-14T16:33:24Z</time>
      </trkpt>
      <trkpt lat="45.35354" lon="5.74949">
        <ele>928</ele>
        <time>2021-12-14T16:33:40Z</time>
      </trkpt>
      <trkpt lat="45.35342" lon="5.74931">
        <ele>932</ele>
        <time>2021-12-14T16:33:54Z</time>
      </trkpt>
      <trkpt lat="45.35328" lon="5.74918">
        <ele>931</ele>
        <time>2021-12-14T16:34:08Z</time>
      </trkpt>
      <trkpt lat="45.35309" lon="5.74894">
        <ele>937</ele>
        <time>2021-12-14T16:34:28Z</time>
      </trkpt>
      <trkpt lat="45.35294" lon="5.74882">
        <ele>937</ele>
        <time>2021-12-14T16:34:42Z</time>
      </trkpt>
      <trkpt lat="45.35264" lon="5.74843">
        <ele>946</ele>
        <time>2021-12-14T16:35:14Z</time>
      </trkpt>
      <trkpt lat="45.35258" lon="5.74834">
        <ele>948</ele>
        <time>2021-12-14T16:35:21Z</time>
      </trkpt>
      <trkpt lat="45.3525" lon="5.74811">
        <ele>961</ele>
        <time>2021-12-14T16:35:36Z</time>
      </trkpt>
      <trkpt lat="45.35246" lon="5.74813">
        <ele>957</ele>
        <time>2021-12-14T16:35:39Z</time>
      </trkpt>
      <trkpt lat="45.3522" lon="5.74802">
        <ele>952</ele>
        <time>2021-12-14T16:36:01Z</time>
      </trkpt>
      <trkpt lat="45.3521" lon="5.74805">
        <ele>945</ele>
        <time>2021-12-14T16:36:09Z</time>
      </trkpt>
      <trkpt lat="45.35215" lon="5.74808">
        <ele>945</ele>
        <time>2021-12-14T16:36:13Z</time>
      </trkpt>
      <trkpt lat="45.352" lon="5.748">
        <ele>943</ele>
        <time>2021-12-14T16:36:26Z</time>
      </trkpt>
      <trkpt lat="45.35166" lon="5.74756">
        <ele>948</ele>
        <time>2021-12-14T16:37:03Z</time>
      </trkpt>
      <trkpt lat="45.35163" lon="5.74745">
        <ele>952</ele>
        <time>2021-12-14T16:37:10Z</time>
      </trkpt>
      <trkpt lat="45.35149" lon="5.74723">
        <ele>959</ele>
        <time>2021-12-14T16:37:26Z</time>
      </trkpt>
      <trkpt lat="45.35081" lon="5.74653">
        <ele>964</ele>
        <time>2021-12-14T16:38:33Z</time>
      </trkpt>
      <trkpt lat="45.35075" lon="5.74643">
        <ele>968</ele>
        <time>2021-12-14T16:38:41Z</time>
      </trkpt>
      <trkpt lat="45.35038" lon="5.74604">
        <ele>975</ele>
        <time>2021-12-14T16:39:18Z</time>
      </trkpt>
      <trkpt lat="45.35021" lon="5.74594">
        <ele>971</ele>
        <time>2021-12-14T16:39:32Z</time>
      </trkpt>
      <trkpt lat="45.34968" lon="5.74544">
        <ele>988</ele>
        <time>2021-12-14T16:40:23Z</time>
      </trkpt>
      <trkpt lat="45.34951" lon="5.74512">
        <ele>998</ele>
        <time>2021-12-14T16:40:46Z</time>
      </trkpt>
      <trkpt lat="45.3491" lon="5.74469">
        <ele>1005</ele>
        <time>2021-12-14T16:41:27Z</time>
      </trkpt>
      <trkpt lat="45.34897" lon="5.74444">
        <ele>1017</ele>
        <time>2021-12-14T16:41:44Z</time>
      </trkpt>
      <trkpt lat="45.34884" lon="5.74438">
        <ele>1022</ele>
        <time>2021-12-14T16:41:55Z</time>
      </trkpt>
      <trkpt lat="45.34874" lon="5.74445">
        <ele>1022</ele>
        <time>2021-12-14T16:42:04Z</time>
      </trkpt>
      <trkpt lat="45.34871" lon="5.74469">
        <ele>1018</ele>
        <time>2021-12-14T16:42:18Z</time>
      </trkpt>
      <trkpt lat="45.34876" lon="5.74506">
        <ele>1009</ele>
        <time>2021-12-14T16:42:39Z</time>
      </trkpt>
      <trkpt lat="45.34905" lon="5.74595">
        <ele>986</ele>
        <time>2021-12-14T16:43:34Z</time>
      </trkpt>
      <trkpt lat="45.34911" lon="5.74624">
        <ele>984</ele>
        <time>2021-12-14T16:43:51Z</time>
      </trkpt>
      <trkpt lat="45.34905" lon="5.74658">
        <ele>991</ele>
        <time>2021-12-14T16:44:11Z</time>
      </trkpt>
      <trkpt lat="45.34903" lon="5.74697">
        <ele>994</ele>
        <time>2021-12-14T16:44:33Z</time>
      </trkpt>
      <trkpt lat="45.34911" lon="5.74794">
        <ele>988</ele>
        <time>2021-12-14T16:45:28Z</time>
      </trkpt>
      <trkpt lat="45.3492" lon="5.7483">
        <ele>981</ele>
        <time>2021-12-14T16:45:49Z</time>
      </trkpt>
      <trkpt lat="45.34921" lon="5.74874">
        <ele>976</ele>
        <time>2021-12-14T16:46:14Z</time>
      </trkpt>
      <trkpt lat="45.34916" lon="5.74899">
        <ele>976</ele>
        <time>2021-12-14T16:46:29Z</time>
      </trkpt>
      <trkpt lat="45.34907" lon="5.74911">
        <ele>978</ele>
        <time>2021-12-14T16:46:39Z</time>
      </trkpt>
      <trkpt lat="45.34881" lon="5.74919">
        <ele>987</ele>
        <time>2021-12-14T16:47:00Z</time>
      </trkpt>
      <trkpt lat="45.34867" lon="5.74928">
        <ele>991</ele>
        <time>2021-12-14T16:47:12Z</time>
      </trkpt>
      <trkpt lat="45.34818" lon="5.75054">
        <ele>994</ele>
        <time>2021-12-14T16:48:33Z</time>
      </trkpt>
      <trkpt lat="45.34791" lon="5.75146">
        <ele>1000</ele>
        <time>2021-12-14T16:49:29Z</time>
      </trkpt>
      <trkpt lat="45.34785" lon="5.75197">
        <ele>1004</ele>
        <time>2021-12-14T16:49:58Z</time>
      </trkpt>
      <trkpt lat="45.34789" lon="5.75309">
        <ele>1008</ele>
        <time>2021-12-14T16:51:02Z</time>
      </trkpt>
      <trkpt lat="45.34786" lon="5.75351">
        <ele>1009</ele>
        <time>2021-12-14T16:51:25Z</time>
      </trkpt>
      <trkpt lat="45.34781" lon="5.75366">
        <ele>1012</ele>
        <time>2021-12-14T16:51:35Z</time>
      </trkpt>
      <trkpt lat="45.34783" lon="5.75382">
        <ele>1007</ele>
        <time>2021-12-14T16:51:44Z</time>
      </trkpt>
      <trkpt lat="45.34788" lon="5.75396">
        <ele>999</ele>
        <time>2021-12-14T16:51:53Z</time>
      </trkpt>
      <trkpt lat="45.34789" lon="5.75415">
        <ele>995</ele>
        <time>2021-12-14T16:52:03Z</time>
      </trkpt>
      <trkpt lat="45.34788" lon="5.75432">
        <ele>992</ele>
        <time>2021-12-14T16:52:13Z</time>
      </trkpt>
      <trkpt lat="45.34778" lon="5.7545">
        <ele>1001</ele>
        <time>2021-12-14T16:52:26Z</time>
      </trkpt>
      <trkpt lat="45.34775" lon="5.75491">
        <ele>996</ele>
        <time>2021-12-14T16:52:49Z</time>
      </trkpt>
      <trkpt lat="45.3477" lon="5.75502">
        <ele>1000</ele>
        <time>2021-12-14T16:52:56Z</time>
      </trkpt>
      <trkpt lat="45.34758" lon="5.75518">
        <ele>1007</ele>
        <time>2021-12-14T16:53:10Z</time>
      </trkpt>
      <trkpt lat="45.34755" lon="5.75509">
        <ele>1017</ele>
        <time>2021-12-14T16:53:15Z</time>
      </trkpt>
      <trkpt lat="45.34743" lon="5.75508">
        <ele>1027</ele>
        <time>2021-12-14T16:53:25Z</time>
      </trkpt>
      <trkpt lat="45.34713" lon="5.75557">
        <ele>1005</ele>
        <time>2021-12-14T16:54:01Z</time>
      </trkpt>
      <trkpt lat="45.34721" lon="5.75555">
        <ele>1003</ele>
        <time>2021-12-14T16:54:08Z</time>
      </trkpt>
      <trkpt lat="45.34718" lon="5.75569">
        <ele>995</ele>
        <time>2021-12-14T16:54:16Z</time>
      </trkpt>
      <trkpt lat="45.3471" lon="5.75584">
        <ele>988</ele>
        <time>2021-12-14T16:54:27Z</time>
      </trkpt>
      <trkpt lat="45.34681" lon="5.75615">
        <ele>978</ele>
        <time>2021-12-14T16:54:56Z</time>
      </trkpt>
      <trkpt lat="45.34669" lon="5.75618">
        <ele>981</ele>
        <time>2021-12-14T16:55:06Z</time>
      </trkpt>
      <trkpt lat="45.34638" lon="5.75612">
        <ele>996</ele>
        <time>2021-12-14T16:55:31Z</time>
      </trkpt>
      <trkpt lat="45.3461" lon="5.75628">
        <ele>999</ele>
        <time>2021-12-14T16:55:55Z</time>
      </trkpt>
      <trkpt lat="45.34567" lon="5.75667">
        <ele>1004</ele>
        <time>2021-12-14T16:56:36Z</time>
      </trkpt>
      <trkpt lat="45.34545" lon="5.75709">
        <ele>994</ele>
        <time>2021-12-14T16:57:05Z</time>
      </trkpt>
      <trkpt lat="45.34531" lon="5.75726">
        <ele>994</ele>
        <time>2021-12-14T16:57:20Z</time>
      </trkpt>
      <trkpt lat="45.34515" lon="5.75731">
        <ele>998</ele>
        <time>2021-12-14T16:57:33Z</time>
      </trkpt>
      <trkpt lat="45.34507" lon="5.75727">
        <ele>1002</ele>
        <time>2021-12-14T16:57:40Z</time>
      </trkpt>
      <trkpt lat="45.34486" lon="5.75705">
        <ele>1011</ele>
        <time>2021-12-14T16:58:01Z</time>
      </trkpt>
      <trkpt lat="45.34472" lon="5.75673">
        <ele>1015</ele>
        <time>2021-12-14T16:58:22Z</time>
      </trkpt>
      <trkpt lat="45.34462" lon="5.75661">
        <ele>1017</ele>
        <time>2021-12-14T16:58:32Z</time>
      </trkpt>
      <trkpt lat="45.34456" lon="5.75659">
        <ele>1017</ele>
        <time>2021-12-14T16:58:37Z</time>
      </trkpt>
      <trkpt lat="45.34448" lon="5.75648">
        <ele>1018</ele>
        <time>2021-12-14T16:58:46Z</time>
      </trkpt>
      <trkpt lat="45.34439" lon="5.75632">
        <ele>1019</ele>
        <time>2021-12-14T16:58:58Z</time>
      </trkpt>
      <trkpt lat="45.34415" lon="5.75567">
        <ele>1023</ele>
        <time>2021-12-14T16:59:39Z</time>
      </trkpt>
      <trkpt lat="45.34384" lon="5.75513">
        <ele>1032</ele>
        <time>2021-12-14T17:00:18Z</time>
      </trkpt>
      <trkpt lat="45.34371" lon="5.75495">
        <ele>1033</ele>
        <time>2021-12-14T17:00:33Z</time>
      </trkpt>
      <trkpt lat="45.34359" lon="5.75489">
        <ele>1034</ele>
        <time>2021-12-14T17:00:43Z</time>
      </trkpt>
      <trkpt lat="45.3433" lon="5.75492">
        <ele>1032</ele>
        <time>2021-12-14T17:01:06Z</time>
      </trkpt>
      <trkpt lat="45.34322" lon="5.75491">
        <ele>1033</ele>
        <time>2021-12-14T17:01:13Z</time>
      </trkpt>
      <trkpt lat="45.34316" lon="5.75487">
        <ele>1034</ele>
        <time>2021-12-14T17:01:18Z</time>
      </trkpt>
      <trkpt lat="45.34299" lon="5.7547">
        <ele>1037</ele>
        <time>2021-12-14T17:01:35Z</time>
      </trkpt>
      <trkpt lat="45.34283" lon="5.75448">
        <ele>1037</ele>
        <time>2021-12-14T17:01:52Z</time>
      </trkpt>
      <trkpt lat="45.34263" lon="5.75431">
        <ele>1035</ele>
        <time>2021-12-14T17:02:11Z</time>
      </trkpt>
      <trkpt lat="45.34226" lon="5.75358">
        <ele>1040</ele>
        <time>2021-12-14T17:03:02Z</time>
      </trkpt>
      <trkpt lat="45.34206" lon="5.75339">
        <ele>1042</ele>
        <time>2021-12-14T17:03:21Z</time>
      </trkpt>
      <trkpt lat="45.34187" lon="5.75315">
        <ele>1044</ele>
        <time>2021-12-14T17:03:41Z</time>
      </trkpt>
      <trkpt lat="45.34149" lon="5.75287">
        <ele>1047</ele>
        <time>2021-12-14T17:04:16Z</time>
      </trkpt>
      <trkpt lat="45.34082" lon="5.75247">
        <ele>1056</ele>
        <time>2021-12-14T17:05:14Z</time>
      </trkpt>
      <trkpt lat="45.34073" lon="5.75238">
        <ele>1060</ele>
        <time>2021-12-14T17:05:23Z</time>
      </trkpt>
      <trkpt lat="45.34067" lon="5.75238">
        <ele>1062</ele>
        <time>2021-12-14T17:05:27Z</time>
      </trkpt>
      <trkpt lat="45.34051" lon="5.75232">
        <ele>1069</ele>
        <time>2021-12-14T17:05:41Z</time>
      </trkpt>
      <trkpt lat="45.34044" lon="5.75221">
        <ele>1070</ele>
        <time>2021-12-14T17:05:49Z</time>
      </trkpt>
      <trkpt lat="45.34037" lon="5.75188">
        <ele>1069</ele>
        <time>2021-12-14T17:06:08Z</time>
      </trkpt>
      <trkpt lat="45.34031" lon="5.75178">
        <ele>1070</ele>
        <time>2021-12-14T17:06:16Z</time>
      </trkpt>
      <trkpt lat="45.34005" lon="5.75156">
        <ele>1077</ele>
        <time>2021-12-14T17:06:40Z</time>
      </trkpt>
      <trkpt lat="45.33987" lon="5.75132">
        <ele>1083</ele>
        <time>2021-12-14T17:07:00Z</time>
      </trkpt>
      <trkpt lat="45.33975" lon="5.75125">
        <ele>1084</ele>
        <time>2021-12-14T17:07:10Z</time>
      </trkpt>
      <trkpt lat="45.33931" lon="5.75109">
        <ele>1089</ele>
        <time>2021-12-14T17:07:46Z</time>
      </trkpt>
      <trkpt lat="45.33925" lon="5.75109">
        <ele>1090</ele>
        <time>2021-12-14T17:07:51Z</time>
      </trkpt>
      <trkpt lat="45.33919" lon="5.751">
        <ele>1089</ele>
        <time>2021-12-14T17:07:58Z</time>
      </trkpt>
      <trkpt lat="45.33915" lon="5.75087">
        <ele>1088</ele>
        <time>2021-12-14T17:08:06Z</time>
      </trkpt>
      <trkpt lat="45.339" lon="5.75063">
        <ele>1089</ele>
        <time>2021-12-14T17:08:24Z</time>
      </trkpt>
      <trkpt lat="45.33881" lon="5.75039">
        <ele>1090</ele>
        <time>2021-12-14T17:08:45Z</time>
      </trkpt>
      <trkpt lat="45.33871" lon="5.75031">
        <ele>1090</ele>
        <time>2021-12-14T17:08:54Z</time>
      </trkpt>
      <trkpt lat="45.33864" lon="5.75021">
        <ele>1089</ele>
        <time>2021-12-14T17:09:02Z</time>
      </trkpt>
      <trkpt lat="45.33832" lon="5.74994">
        <ele>1085</ele>
        <time>2021-12-14T17:09:32Z</time>
      </trkpt>
      <trkpt lat="45.33822" lon="5.7498">
        <ele>1087</ele>
        <time>2021-12-14T17:09:43Z</time>
      </trkpt>
      <trkpt lat="45.33786" lon="5.74943">
        <ele>1091</ele>
        <time>2021-12-14T17:10:18Z</time>
      </trkpt>
      <trkpt lat="45.33756" lon="5.74907">
        <ele>1091</ele>
        <time>2021-12-14T17:10:50Z</time>
      </trkpt>
      <trkpt lat="45.33746" lon="5.74903">
        <ele>1092</ele>
        <time>2021-12-14T17:10:58Z</time>
      </trkpt>
      <trkpt lat="45.3372" lon="5.74868">
        <ele>1094</ele>
        <time>2021-12-14T17:11:27Z</time>
      </trkpt>
      <trkpt lat="45.33697" lon="5.74849">
        <ele>1096</ele>
        <time>2021-12-14T17:11:48Z</time>
      </trkpt>
      <trkpt lat="45.33661" lon="5.74827">
        <ele>1101</ele>
        <time>2021-12-14T17:12:19Z</time>
      </trkpt>
      <trkpt lat="45.33649" lon="5.74826">
        <ele>1102</ele>
        <time>2021-12-14T17:12:29Z</time>
      </trkpt>
      <trkpt lat="45.3359" lon="5.7484">
        <ele>1106</ele>
        <time>2021-12-14T17:13:17Z</time>
      </trkpt>
      <trkpt lat="45.33566" lon="5.74829">
        <ele>1109</ele>
        <time>2021-12-14T17:13:37Z</time>
      </trkpt>
      <trkpt lat="45.33543" lon="5.74825">
        <ele>1111</ele>
        <time>2021-12-14T17:13:56Z</time>
      </trkpt>
      <trkpt lat="45.33527" lon="5.74819">
        <ele>1113</ele>
        <time>2021-12-14T17:14:09Z</time>
      </trkpt>
      <trkpt lat="45.33491" lon="5.74813">
        <ele>1115</ele>
        <time>2021-12-14T17:14:38Z</time>
      </trkpt>
      <trkpt lat="45.33463" lon="5.74803">
        <ele>1117</ele>
        <time>2021-12-14T17:15:01Z</time>
      </trkpt>
      <trkpt lat="45.33399" lon="5.74747">
        <ele>1114</ele>
        <time>2021-12-14T17:16:01Z</time>
      </trkpt>
      <trkpt lat="45.33364" lon="5.74722">
        <ele>1117</ele>
        <time>2021-12-14T17:16:33Z</time>
      </trkpt>
      <trkpt lat="45.33336" lon="5.74698">
        <ele>1118</ele>
        <time>2021-12-14T17:16:59Z</time>
      </trkpt>
      <trkpt lat="45.33328" lon="5.74688">
        <ele>1120</ele>
        <time>2021-12-14T17:17:07Z</time>
      </trkpt>
      <trkpt lat="45.33308" lon="5.74672">
        <ele>1120</ele>
        <time>2021-12-14T17:17:26Z</time>
      </trkpt>
      <trkpt lat="45.33267" lon="5.74627">
        <ele>1123</ele>
        <time>2021-12-14T17:18:07Z</time>
      </trkpt>
      <trkpt lat="45.33257" lon="5.74614">
        <ele>1123</ele>
        <time>2021-12-14T17:18:18Z</time>
      </trkpt>
      <trkpt lat="45.33242" lon="5.7458">
        <ele>1126</ele>
        <time>2021-12-14T17:18:41Z</time>
      </trkpt>
      <trkpt lat="45.33206" lon="5.7453">
        <ele>1132</ele>
        <time>2021-12-14T17:19:21Z</time>
      </trkpt>
      <trkpt lat="45.33191" lon="5.74506">
        <ele>1133</ele>
        <time>2021-12-14T17:19:39Z</time>
      </trkpt>
      <trkpt lat="45.33178" lon="5.74478">
        <ele>1140</ele>
        <time>2021-12-14T17:19:58Z</time>
      </trkpt>
      <trkpt lat="45.33165" lon="5.74459">
        <ele>1146</ele>
        <time>2021-12-14T17:20:13Z</time>
      </trkpt>
      <trkpt lat="45.33127" lon="5.7443">
        <ele>1152</ele>
        <time>2021-12-14T17:20:47Z</time>
      </trkpt>
      <trkpt lat="45.33111" lon="5.74414">
        <ele>1154</ele>
        <time>2021-12-14T17:21:03Z</time>
      </trkpt>
      <trkpt lat="45.33074" lon="5.74392">
        <ele>1158</ele>
        <time>2021-12-14T17:21:35Z</time>
      </trkpt>
      <trkpt lat="45.33066" lon="5.74391">
        <ele>1158</ele>
        <time>2021-12-14T17:21:42Z</time>
      </trkpt>
      <trkpt lat="45.33018" lon="5.74366">
        <ele>1162</ele>
        <time>2021-12-14T17:22:22Z</time>
      </trkpt>
      <trkpt lat="45.33007" lon="5.74359">
        <ele>1163</ele>
        <time>2021-12-14T17:22:32Z</time>
      </trkpt>
      <trkpt lat="45.32991" lon="5.74344">
        <ele>1166</ele>
        <time>2021-12-14T17:22:47Z</time>
      </trkpt>
      <trkpt lat="45.32978" lon="5.74338">
        <ele>1166</ele>
        <time>2021-12-14T17:22:58Z</time>
      </trkpt>
      <trkpt lat="45.32953" lon="5.7432">
        <ele>1167</ele>
        <time>2021-12-14T17:23:21Z</time>
      </trkpt>
      <trkpt lat="45.32937" lon="5.74301">
        <ele>1170</ele>
        <time>2021-12-14T17:23:37Z</time>
      </trkpt>
      <trkpt lat="45.32916" lon="5.74282">
        <ele>1172</ele>
        <time>2021-12-14T17:23:57Z</time>
      </trkpt>
      <trkpt lat="45.3289" lon="5.74249">
        <ele>1178</ele>
        <time>2021-12-14T17:24:25Z</time>
      </trkpt>
      <trkpt lat="45.32857" lon="5.74225">
        <ele>1180</ele>
        <time>2021-12-14T17:24:55Z</time>
      </trkpt>
      <trkpt lat="45.3285" lon="5.74212">
        <ele>1183</ele>
        <time>2021-12-14T17:25:04Z</time>
      </trkpt>
      <trkpt lat="45.32845" lon="5.74193">
        <ele>1188</ele>
        <time>2021-12-14T17:25:16Z</time>
      </trkpt>
      <trkpt lat="45.32834" lon="5.74178">
        <ele>1190</ele>
        <time>2021-12-14T17:25:28Z</time>
      </trkpt>
      <trkpt lat="45.32816" lon="5.74166">
        <ele>1195</ele>
        <time>2021-12-14T17:25:44Z</time>
      </trkpt>
      <trkpt lat="45.32799" lon="5.74159">
        <ele>1198</ele>
        <time>2021-12-14T17:25:58Z</time>
      </trkpt>
      <trkpt lat="45.32789" lon="5.74157">
        <ele>1199</ele>
        <time>2021-12-14T17:26:06Z</time>
      </trkpt>
      <trkpt lat="45.32779" lon="5.74159">
        <ele>1199</ele>
        <time>2021-12-14T17:26:14Z</time>
      </trkpt>
      <trkpt lat="45.32761" lon="5.74178">
        <ele>1194</ele>
        <time>2021-12-14T17:26:32Z</time>
      </trkpt>
      <trkpt lat="45.32746" lon="5.74234">
        <ele>1190</ele>
        <time>2021-12-14T17:27:06Z</time>
      </trkpt>
      <trkpt lat="45.32715" lon="5.74273">
        <ele>1199</ele>
        <time>2021-12-14T17:27:39Z</time>
      </trkpt>
      <trkpt lat="45.32688" lon="5.7429">
        <ele>1208</ele>
        <time>2021-12-14T17:28:03Z</time>
      </trkpt>
      <trkpt lat="45.32656" lon="5.74299">
        <ele>1216</ele>
        <time>2021-12-14T17:28:29Z</time>
      </trkpt>
      <trkpt lat="45.32634" lon="5.7429">
        <ele>1221</ele>
        <time>2021-12-14T17:28:47Z</time>
      </trkpt>
      <trkpt lat="45.32626" lon="5.74281">
        <ele>1224</ele>
        <time>2021-12-14T17:28:55Z</time>
      </trkpt>
      <trkpt lat="45.32617" lon="5.74278">
        <ele>1226</ele>
        <time>2021-12-14T17:29:03Z</time>
      </trkpt>
      <trkpt lat="45.32608" lon="5.74271">
        <ele>1228</ele>
        <time>2021-12-14T17:29:11Z</time>
      </trkpt>
      <trkpt lat="45.32584" lon="5.74262">
        <ele>1231</ele>
        <time>2021-12-14T17:29:31Z</time>
      </trkpt>
      <trkpt lat="45.32564" lon="5.74251">
        <ele>1234</ele>
        <time>2021-12-14T17:29:48Z</time>
      </trkpt>
      <trkpt lat="45.3254" lon="5.74243">
        <ele>1237</ele>
        <time>2021-12-14T17:30:08Z</time>
      </trkpt>
      <trkpt lat="45.32523" lon="5.74232">
        <ele>1240</ele>
        <time>2021-12-14T17:30:23Z</time>
      </trkpt>
      <trkpt lat="45.32516" lon="5.74226">
        <ele>1242</ele>
        <time>2021-12-14T17:30:29Z</time>
      </trkpt>
      <trkpt lat="45.3249" lon="5.74189">
        <ele>1249</ele>
        <time>2021-12-14T17:30:59Z</time>
      </trkpt>
      <trkpt lat="45.32469" lon="5.74167">
        <ele>1251</ele>
        <time>2021-12-14T17:31:19Z</time>
      </trkpt>
      <trkpt lat="45.32464" lon="5.74156">
        <ele>1253</ele>
        <time>2021-12-14T17:31:27Z</time>
      </trkpt>
      <trkpt lat="45.32456" lon="5.74149">
        <ele>1255</ele>
        <time>2021-12-14T17:31:34Z</time>
      </trkpt>
      <trkpt lat="45.32441" lon="5.74129">
        <ele>1258</ele>
        <time>2021-12-14T17:31:51Z</time>
      </trkpt>
      <trkpt lat="45.32401" lon="5.74114">
        <ele>1260</ele>
        <time>2021-12-14T17:32:24Z</time>
      </trkpt>
      <trkpt lat="45.3238" lon="5.74099">
        <ele>1264</ele>
        <time>2021-12-14T17:32:43Z</time>
      </trkpt>
      <trkpt lat="45.32296" lon="5.74054">
        <ele>1274</ele>
        <time>2021-12-14T17:33:55Z</time>
      </trkpt>
      <trkpt lat="45.32223" lon="5.74044">
        <ele>1279</ele>
        <time>2021-12-14T17:34:53Z</time>
      </trkpt>
      <trkpt lat="45.32209" lon="5.74037">
        <ele>1280</ele>
        <time>2021-12-14T17:35:05Z</time>
      </trkpt>
      <trkpt lat="45.32189" lon="5.73984">
        <ele>1280</ele>
        <time>2021-12-14T17:35:39Z</time>
      </trkpt>
      <trkpt lat="45.32194" lon="5.73997">
        <ele>1280</ele>
        <time>2021-12-14T17:35:47Z</time>
      </trkpt>
      <trkpt lat="45.32232" lon="5.7399">
        <ele>1281</ele>
        <time>2021-12-14T17:36:18Z</time>
      </trkpt>
      <trkpt lat="45.32247" lon="5.73991">
        <ele>1281</ele>
        <time>2021-12-14T17:36:30Z</time>
      </trkpt>
      <trkpt lat="45.32247" lon="5.73986">
        <ele>1282</ele>
        <time>2021-12-14T17:36:33Z</time>
      </trkpt>
      <trkpt lat="45.32245" lon="5.73993">
        <ele>1281</ele>
        <time>2021-12-14T17:36:37Z</time>
      </trkpt>
      <trkpt lat="45.32248" lon="5.7399">
        <ele>1281</ele>
        <time>2021-12-14T17:36:40Z</time>
      </trkpt>
      <trkpt lat="45.32249" lon="5.73994">
        <ele>1281</ele>
        <time>2021-12-14T17:36:42Z</time>
      </trkpt>
      <trkpt lat="45.32245" lon="5.73992">
        <ele>1281</ele>
        <time>2021-12-14T17:36:46Z</time>
      </trkpt>
      <trkpt lat="45.32244" lon="5.73988">
        <ele>1282</ele>
        <time>2021-12-14T17:36:48Z</time>
      </trkpt>
      <trkpt lat="45.32247" lon="5.73993">
        <ele>1281</ele>
        <time>2021-12-14T17:36:52Z</time>
      </trkpt>
      <trkpt lat="45.32243" lon="5.73995">
        <ele>1281</ele>
        <time>2021-12-14T17:36:55Z</time>
      </trkpt>
      <trkpt lat="45.32242" lon="5.73992">
        <ele>1281</ele>
        <time>2021-12-14T17:36:57Z</time>
      </trkpt>
      <trkpt lat="45.3224" lon="5.73995">
        <ele>1281</ele>
        <time>2021-12-14T17:37:00Z</time>
      </trkpt>
      <trkpt lat="45.32239" lon="5.73993">
        <ele>1281</ele>
        <time>2021-12-14T17:37:01Z</time>
      </trkpt>
      <trkpt lat="45.32243" lon="5.73995">
        <ele>1281</ele>
        <time>2021-12-14T17:37:04Z</time>
      </trkpt>
      <trkpt lat="45.32242" lon="5.73992">
        <ele>1281</ele>
        <time>2021-12-14T17:37:06Z</time>
      </trkpt>
      <trkpt lat="45.32239" lon="5.73994">
        <ele>1281</ele>
        <time>2021-12-14T17:37:09Z</time>
      </trkpt>
      <trkpt lat="45.32243" lon="5.73989">
        <ele>1281</ele>
        <time>2021-12-14T17:37:13Z</time>
      </trkpt>
      <trkpt lat="45.32249" lon="5.73992">
        <ele>1281</ele>
        <time>2021-12-14T17:37:18Z</time>
      </trkpt>
      <trkpt lat="45.323" lon="5.73994">
        <ele>1281</ele>
        <time>2021-12-14T17:37:59Z</time>
      </trkpt>
      <trkpt lat="45.32304" lon="5.73996">
        <ele>1281</ele>
        <time>2021-12-14T17:38:02Z</time>
      </trkpt>
      <trkpt lat="45.32393" lon="5.73987">
        <ele>1284</ele>
        <time>2021-12-14T17:39:14Z</time>
      </trkpt>
      <trkpt lat="45.32447" lon="5.73954">
        <ele>1290</ele>
        <time>2021-12-14T17:40:01Z</time>
      </trkpt>
      <trkpt lat="45.32459" lon="5.73935">
        <ele>1293</ele>
        <time>2021-12-14T17:40:15Z</time>
      </trkpt>
      <trkpt lat="45.32456" lon="5.73902">
        <ele>1297</ele>
        <time>2021-12-14T17:40:34Z</time>
      </trkpt>
      <trkpt lat="45.32447" lon="5.73875">
        <ele>1300</ele>
        <time>2021-12-14T17:40:51Z</time>
      </trkpt>
      <trkpt lat="45.32448" lon="5.73865">
        <ele>1301</ele>
        <time>2021-12-14T17:40:57Z</time>
      </trkpt>
      <trkpt lat="45.32453" lon="5.73853">
        <ele>1302</ele>
        <time>2021-12-14T17:41:04Z</time>
      </trkpt>
      <trkpt lat="45.32452" lon="5.73848">
        <ele>1303</ele>
        <time>2021-12-14T17:41:07Z</time>
      </trkpt>
      <trkpt lat="45.32435" lon="5.73843">
        <ele>1303</ele>
        <time>2021-12-14T17:41:21Z</time>
      </trkpt>
      <trkpt lat="45.32409" lon="5.73848">
        <ele>1302</ele>
        <time>2021-12-14T17:41:42Z</time>
      </trkpt>
      <trkpt lat="45.32391" lon="5.7383">
        <ele>1306</ele>
        <time>2021-12-14T17:42:00Z</time>
      </trkpt>
      <trkpt lat="45.32381" lon="5.73837">
        <ele>1306</ele>
        <time>2021-12-14T17:42:09Z</time>
      </trkpt>
      <trkpt lat="45.32368" lon="5.73807">
        <ele>1310</ele>
        <time>2021-12-14T17:42:29Z</time>
      </trkpt>
      <trkpt lat="45.32365" lon="5.7379">
        <ele>1312</ele>
        <time>2021-12-14T17:42:38Z</time>
      </trkpt>
      <trkpt lat="45.32356" lon="5.73779">
        <ele>1313</ele>
        <time>2021-12-14T17:42:48Z</time>
      </trkpt>
      <trkpt lat="45.32347" lon="5.73775">
        <ele>1313</ele>
        <time>2021-12-14T17:42:56Z</time>
      </trkpt>
      <trkpt lat="45.32345" lon="5.73766">
        <ele>1314</ele>
        <time>2021-12-14T17:43:01Z</time>
      </trkpt>
      <trkpt lat="45.32339" lon="5.73756">
        <ele>1314</ele>
        <time>2021-12-14T17:43:08Z</time>
      </trkpt>
      <trkpt lat="45.32335" lon="5.73716">
        <ele>1316</ele>
        <time>2021-12-14T17:43:31Z</time>
      </trkpt>
      <trkpt lat="45.32339" lon="5.737">
        <ele>1317</ele>
        <time>2021-12-14T17:43:41Z</time>
      </trkpt>
      <trkpt lat="45.32352" lon="5.73675">
        <ele>1319</ele>
        <time>2021-12-14T17:43:58Z</time>
      </trkpt>
      <trkpt lat="45.32347" lon="5.73631">
        <ele>1321</ele>
        <time>2021-12-14T17:44:23Z</time>
      </trkpt>
      <trkpt lat="45.32351" lon="5.73612">
        <ele>1322</ele>
        <time>2021-12-14T17:44:34Z</time>
      </trkpt>
      <trkpt lat="45.32349" lon="5.73588">
        <ele>1323</ele>
        <time>2021-12-14T17:44:48Z</time>
      </trkpt>
      <trkpt lat="45.32345" lon="5.7358">
        <ele>1323</ele>
        <time>2021-12-14T17:44:53Z</time>
      </trkpt>
      <trkpt lat="45.3234" lon="5.73576">
        <ele>1323</ele>
        <time>2021-12-14T17:44:58Z</time>
      </trkpt>
      <trkpt lat="45.32331" lon="5.73524">
        <ele>1327</ele>
        <time>2021-12-14T17:45:28Z</time>
      </trkpt>
      <trkpt lat="45.3234" lon="5.73506">
        <ele>1328</ele>
        <time>2021-12-14T17:45:41Z</time>
      </trkpt>
      <trkpt lat="45.32333" lon="5.73486">
        <ele>1329</ele>
        <time>2021-12-14T17:45:53Z</time>
      </trkpt>
      <trkpt lat="45.32303" lon="5.73467">
        <ele>1331</ele>
        <time>2021-12-14T17:46:19Z</time>
      </trkpt>
      <trkpt lat="45.32288" lon="5.73451">
        <ele>1332</ele>
        <time>2021-12-14T17:46:35Z</time>
      </trkpt>
      <trkpt lat="45.32276" lon="5.7343">
        <ele>1334</ele>
        <time>2021-12-14T17:46:50Z</time>
      </trkpt>
      <trkpt lat="45.32275" lon="5.73415">
        <ele>1335</ele>
        <time>2021-12-14T17:46:58Z</time>
      </trkpt>
      <trkpt lat="45.32271" lon="5.73404">
        <ele>1336</ele>
        <time>2021-12-14T17:47:05Z</time>
      </trkpt>
      <trkpt lat="45.32244" lon="5.73401">
        <ele>1335</ele>
        <time>2021-12-14T17:47:27Z</time>
      </trkpt>
      <trkpt lat="45.32223" lon="5.73377">
        <ele>1334</ele>
        <time>2021-12-14T17:47:48Z</time>
      </trkpt>
      <trkpt lat="45.32203" lon="5.73366">
        <ele>1333</ele>
        <time>2021-12-14T17:48:06Z</time>
      </trkpt>
      <trkpt lat="45.32188" lon="5.73361">
        <ele>1331</ele>
        <time>2021-12-14T17:48:18Z</time>
      </trkpt>
      <trkpt lat="45.32154" lon="5.73336">
        <ele>1330</ele>
        <time>2021-12-14T17:48:49Z</time>
      </trkpt>
      <trkpt lat="45.32128" lon="5.73331">
        <ele>1328</ele>
        <time>2021-12-14T17:49:10Z</time>
      </trkpt>
      <trkpt lat="45.32082" lon="5.73287">
        <ele>1330</ele>
        <time>2021-12-14T17:49:54Z</time>
      </trkpt>
      <trkpt lat="45.32075" lon="5.73265">
        <ele>1332</ele>
        <time>2021-12-14T17:50:08Z</time>
      </trkpt>
      <trkpt lat="45.32068" lon="5.73253">
        <ele>1333</ele>
        <time>2021-12-14T17:50:16Z</time>
      </trkpt>
      <trkpt lat="45.32072" lon="5.73238">
        <ele>1337</ele>
        <time>2021-12-14T17:50:25Z</time>
      </trkpt>
      <trkpt lat="45.3207" lon="5.73228">
        <ele>1339</ele>
        <time>2021-12-14T17:50:31Z</time>
      </trkpt>
      <trkpt lat="45.32045" lon="5.73206">
        <ele>1340</ele>
        <time>2021-12-14T17:50:55Z</time>
      </trkpt>
      <trkpt lat="45.32041" lon="5.73195">
        <ele>1341</ele>
        <time>2021-12-14T17:51:02Z</time>
      </trkpt>
      <trkpt lat="45.32019" lon="5.73168">
        <ele>1342</ele>
        <time>2021-12-14T17:51:25Z</time>
      </trkpt>
      <trkpt lat="45.32015" lon="5.73161">
        <ele>1343</ele>
        <time>2021-12-14T17:51:30Z</time>
      </trkpt>
      <trkpt lat="45.32016" lon="5.73158">
        <ele>1344</ele>
        <time>2021-12-14T17:51:32Z</time>
      </trkpt>
      <trkpt lat="45.32002" lon="5.7314">
        <ele>1346</ele>
        <time>2021-12-14T17:51:47Z</time>
      </trkpt>
      <trkpt lat="45.31996" lon="5.73126">
        <ele>1349</ele>
        <time>2021-12-14T17:51:56Z</time>
      </trkpt>
      <trkpt lat="45.31987" lon="5.73093">
        <ele>1356</ele>
        <time>2021-12-14T17:52:16Z</time>
      </trkpt>
      <trkpt lat="45.31968" lon="5.73085">
        <ele>1354</ele>
        <time>2021-12-14T17:52:32Z</time>
      </trkpt>
      <trkpt lat="45.3195" lon="5.73065">
        <ele>1355</ele>
        <time>2021-12-14T17:52:50Z</time>
      </trkpt>
      <trkpt lat="45.31943" lon="5.73064">
        <ele>1353</ele>
        <time>2021-12-14T17:52:56Z</time>
      </trkpt>
      <trkpt lat="45.31937" lon="5.73056">
        <ele>1353</ele>
        <time>2021-12-14T17:53:03Z</time>
      </trkpt>
      <trkpt lat="45.31917" lon="5.73015">
        <ele>1356</ele>
        <time>2021-12-14T17:53:31Z</time>
      </trkpt>
      <trkpt lat="45.319" lon="5.73003">
        <ele>1353</ele>
        <time>2021-12-14T17:53:46Z</time>
      </trkpt>
      <trkpt lat="45.31894" lon="5.72992">
        <ele>1354</ele>
        <time>2021-12-14T17:53:54Z</time>
      </trkpt>
      <trkpt lat="45.31896" lon="5.72975">
        <ele>1360</ele>
        <time>2021-12-14T17:54:03Z</time>
      </trkpt>
      <trkpt lat="45.31894" lon="5.72965">
        <ele>1362</ele>
        <time>2021-12-14T17:54:09Z</time>
      </trkpt>
      <trkpt lat="45.31881" lon="5.72957">
        <ele>1360</ele>
        <time>2021-12-14T17:54:21Z</time>
      </trkpt>
      <trkpt lat="45.31876" lon="5.72948">
        <ele>1361</ele>
        <time>2021-12-14T17:54:27Z</time>
      </trkpt>
      <trkpt lat="45.31871" lon="5.72924">
        <ele>1366</ele>
        <time>2021-12-14T17:54:41Z</time>
      </trkpt>
      <trkpt lat="45.31852" lon="5.72909">
        <ele>1363</ele>
        <time>2021-12-14T17:54:59Z</time>
      </trkpt>
      <trkpt lat="45.31842" lon="5.72896">
        <ele>1363</ele>
        <time>2021-12-14T17:55:09Z</time>
      </trkpt>
      <trkpt lat="45.31829" lon="5.72863">
        <ele>1366</ele>
        <time>2021-12-14T17:55:31Z</time>
      </trkpt>
      <trkpt lat="45.31828" lon="5.72803">
        <ele>1376</ele>
        <time>2021-12-14T17:56:05Z</time>
      </trkpt>
      <trkpt lat="45.31823" lon="5.7279">
        <ele>1378</ele>
        <time>2021-12-14T17:56:13Z</time>
      </trkpt>
      <trkpt lat="45.31815" lon="5.72783">
        <ele>1379</ele>
        <time>2021-12-14T17:56:20Z</time>
      </trkpt>
      <trkpt lat="45.31805" lon="5.72758">
        <ele>1383</ele>
        <time>2021-12-14T17:56:37Z</time>
      </trkpt>
      <trkpt lat="45.31805" lon="5.72744">
        <ele>1385</ele>
        <time>2021-12-14T17:56:44Z</time>
      </trkpt>
      <trkpt lat="45.31807" lon="5.7274">
        <ele>1385</ele>
        <time>2021-12-14T17:56:47Z</time>
      </trkpt>
      <trkpt lat="45.31817" lon="5.72734">
        <ele>1386</ele>
        <time>2021-12-14T17:56:56Z</time>
      </trkpt>
      <trkpt lat="45.31819" lon="5.72729">
        <ele>1386</ele>
        <time>2021-12-14T17:56:59Z</time>
      </trkpt>
      <trkpt lat="45.31816" lon="5.72729">
        <ele>1386</ele>
        <time>2021-12-14T17:57:02Z</time>
      </trkpt>
      <trkpt lat="45.31809" lon="5.72721">
        <ele>1388</ele>
        <time>2021-12-14T17:57:09Z</time>
      </trkpt>
      <trkpt lat="45.31811" lon="5.72692">
        <ele>1391</ele>
        <time>2021-12-14T17:57:25Z</time>
      </trkpt>
      <trkpt lat="45.31804" lon="5.72677">
        <ele>1393</ele>
        <time>2021-12-14T17:57:35Z</time>
      </trkpt>
      <trkpt lat="45.31809" lon="5.72655">
        <ele>1396</ele>
        <time>2021-12-14T17:57:48Z</time>
      </trkpt>
      <trkpt lat="45.3181" lon="5.72635">
        <ele>1399</ele>
        <time>2021-12-14T17:58:00Z</time>
      </trkpt>
      <trkpt lat="45.31806" lon="5.72616">
        <ele>1402</ele>
        <time>2021-12-14T17:58:11Z</time>
      </trkpt>
      <trkpt lat="45.318" lon="5.72606">
        <ele>1403</ele>
        <time>2021-12-14T17:58:18Z</time>
      </trkpt>
      <trkpt lat="45.31794" lon="5.72571">
        <ele>1408</ele>
        <time>2021-12-14T17:58:38Z</time>
      </trkpt>
      <trkpt lat="45.31776" lon="5.72546">
        <ele>1410</ele>
        <time>2021-12-14T17:58:59Z</time>
      </trkpt>
      <trkpt lat="45.31769" lon="5.72521">
        <ele>1411</ele>
        <time>2021-12-14T17:59:14Z</time>
      </trkpt>
      <trkpt lat="45.31769" lon="5.72482">
        <ele>1412</ele>
        <time>2021-12-14T17:59:36Z</time>
      </trkpt>
      <trkpt lat="45.31776" lon="5.72471">
        <ele>1411</ele>
        <time>2021-12-14T17:59:44Z</time>
      </trkpt>
      <trkpt lat="45.31774" lon="5.72464">
        <ele>1411</ele>
        <time>2021-12-14T17:59:48Z</time>
      </trkpt>
      <trkpt lat="45.31773" lon="5.72423">
        <ele>1410</ele>
        <time>2021-12-14T18:00:11Z</time>
      </trkpt>
      <trkpt lat="45.31768" lon="5.72415">
        <ele>1409</ele>
        <time>2021-12-14T18:00:17Z</time>
      </trkpt>
      <trkpt lat="45.31766" lon="5.72392">
        <ele>1410</ele>
        <time>2021-12-14T18:00:30Z</time>
      </trkpt>
      <trkpt lat="45.31759" lon="5.72384">
        <ele>1410</ele>
        <time>2021-12-14T18:00:38Z</time>
      </trkpt>
      <trkpt lat="45.31753" lon="5.72384">
        <ele>1409</ele>
        <time>2021-12-14T18:00:42Z</time>
      </trkpt>
      <trkpt lat="45.31741" lon="5.72353">
        <ele>1410</ele>
        <time>2021-12-14T18:01:02Z</time>
      </trkpt>
      <trkpt lat="45.31735" lon="5.72347">
        <ele>1410</ele>
        <time>2021-12-14T18:01:08Z</time>
      </trkpt>
      <trkpt lat="45.31715" lon="5.72329">
        <ele>1412</ele>
        <time>2021-12-14T18:01:27Z</time>
      </trkpt>
      <trkpt lat="45.31697" lon="5.72317">
        <ele>1415</ele>
        <time>2021-12-14T18:01:43Z</time>
      </trkpt>
      <trkpt lat="45.31679" lon="5.7231">
        <ele>1417</ele>
        <time>2021-12-14T18:01:58Z</time>
      </trkpt>
      <trkpt lat="45.31668" lon="5.72293">
        <ele>1421</ele>
        <time>2021-12-14T18:02:11Z</time>
      </trkpt>
      <trkpt lat="45.31668" lon="5.72283">
        <ele>1424</ele>
        <time>2021-12-14T18:02:17Z</time>
      </trkpt>
      <trkpt lat="45.3165" lon="5.72296">
        <ele>1425</ele>
        <time>2021-12-14T18:02:33Z</time>
      </trkpt>
      <trkpt lat="45.31638" lon="5.72292">
        <ele>1430</ele>
        <time>2021-12-14T18:02:43Z</time>
      </trkpt>
      <trkpt lat="45.31645" lon="5.72285">
        <ele>1429</ele>
        <time>2021-12-14T18:02:50Z</time>
      </trkpt>
      <trkpt lat="45.3164" lon="5.72286">
        <ele>1430</ele>
        <time>2021-12-14T18:02:54Z</time>
      </trkpt>
      <trkpt lat="45.31651" lon="5.72264">
        <ele>1432</ele>
        <time>2021-12-14T18:03:09Z</time>
      </trkpt>
      <trkpt lat="45.31648" lon="5.72254">
        <ele>1435</ele>
        <time>2021-12-14T18:03:15Z</time>
      </trkpt>
      <trkpt lat="45.31635" lon="5.72246">
        <ele>1440</ele>
        <time>2021-12-14T18:03:26Z</time>
      </trkpt>
      <trkpt lat="45.31607" lon="5.72246">
        <ele>1445</ele>
        <time>2021-12-14T18:03:49Z</time>
      </trkpt>
      <trkpt lat="45.31582" lon="5.72238">
        <ele>1450</ele>
        <time>2021-12-14T18:04:09Z</time>
      </trkpt>
      <trkpt lat="45.31574" lon="5.7223">
        <ele>1452</ele>
        <time>2021-12-14T18:04:17Z</time>
      </trkpt>
      <trkpt lat="45.31557" lon="5.72202">
        <ele>1454</ele>
        <time>2021-12-14T18:04:38Z</time>
      </trkpt>
      <trkpt lat="45.31538" lon="5.72184">
        <ele>1453</ele>
        <time>2021-12-14T18:04:56Z</time>
      </trkpt>
      <trkpt lat="45.3152" lon="5.72148">
        <ele>1455</ele>
        <time>2021-12-14T18:05:21Z</time>
      </trkpt>
      <trkpt lat="45.31494" lon="5.72112">
        <ele>1457</ele>
        <time>2021-12-14T18:05:50Z</time>
      </trkpt>
      <trkpt lat="45.31487" lon="5.72111">
        <ele>1457</ele>
        <time>2021-12-14T18:05:56Z</time>
      </trkpt>
      <trkpt lat="45.31461" lon="5.72099">
        <ele>1457</ele>
        <time>2021-12-14T18:06:18Z</time>
      </trkpt>
      <trkpt lat="45.31444" lon="5.72084">
        <ele>1456</ele>
        <time>2021-12-14T18:06:34Z</time>
      </trkpt>
      <trkpt lat="45.31434" lon="5.72069">
        <ele>1459</ele>
        <time>2021-12-14T18:06:45Z</time>
      </trkpt>
      <trkpt lat="45.31425" lon="5.72047">
        <ele>1463</ele>
        <time>2021-12-14T18:07:00Z</time>
      </trkpt>
      <trkpt lat="45.31409" lon="5.72045">
        <ele>1466</ele>
        <time>2021-12-14T18:07:12Z</time>
      </trkpt>
      <trkpt lat="45.31403" lon="5.72042">
        <ele>1469</ele>
        <time>2021-12-14T18:07:18Z</time>
      </trkpt>
      <trkpt lat="45.31399" lon="5.72039">
        <ele>1471</ele>
        <time>2021-12-14T18:07:21Z</time>
      </trkpt>
      <trkpt lat="45.31398" lon="5.72032">
        <ele>1473</ele>
        <time>2021-12-14T18:07:25Z</time>
      </trkpt>
      <trkpt lat="45.31394" lon="5.72036">
        <ele>1474</ele>
        <time>2021-12-14T18:07:29Z</time>
      </trkpt>
      <trkpt lat="45.31395" lon="5.72023">
        <ele>1476</ele>
        <time>2021-12-14T18:07:36Z</time>
      </trkpt>
      <trkpt lat="45.31385" lon="5.7203">
        <ele>1479</ele>
        <time>2021-12-14T18:07:45Z</time>
      </trkpt>
      <trkpt lat="45.31386" lon="5.72016">
        <ele>1481</ele>
        <time>2021-12-14T18:07:53Z</time>
      </trkpt>
      <trkpt lat="45.31384" lon="5.7201">
        <ele>1482</ele>
        <time>2021-12-14T18:07:57Z</time>
      </trkpt>
      <trkpt lat="45.31379" lon="5.72018">
        <ele>1483</ele>
        <time>2021-12-14T18:08:03Z</time>
      </trkpt>
      <trkpt lat="45.31377" lon="5.72004">
        <ele>1486</ele>
        <time>2021-12-14T18:08:11Z</time>
      </trkpt>
      <trkpt lat="45.31375" lon="5.72003">
        <ele>1487</ele>
        <time>2021-12-14T18:08:13Z</time>
      </trkpt>
      <trkpt lat="45.31397" lon="5.71989">
        <ele>1482</ele>
        <time>2021-12-14T18:08:32Z</time>
      </trkpt>
      <trkpt lat="45.31395" lon="5.71978">
        <ele>1485</ele>
        <time>2021-12-14T18:08:39Z</time>
      </trkpt>
      <trkpt lat="45.31414" lon="5.71965">
        <ele>1482</ele>
        <time>2021-12-14T18:08:55Z</time>
      </trkpt>
      <trkpt lat="45.31415" lon="5.71948">
        <ele>1487</ele>
        <time>2021-12-14T18:09:05Z</time>
      </trkpt>
      <trkpt lat="45.31403" lon="5.71937">
        <ele>1493</ele>
        <time>2021-12-14T18:09:16Z</time>
      </trkpt>
      <trkpt lat="45.31395" lon="5.71941">
        <ele>1494</ele>
        <time>2021-12-14T18:09:23Z</time>
      </trkpt>
      <trkpt lat="45.31387" lon="5.71925">
        <ele>1499</ele>
        <time>2021-12-14T18:09:34Z</time>
      </trkpt>
      <trkpt lat="45.31381" lon="5.7192">
        <ele>1502</ele>
        <time>2021-12-14T18:09:40Z</time>
      </trkpt>
      <trkpt lat="45.31377" lon="5.71898">
        <ele>1507</ele>
        <time>2021-12-14T18:09:53Z</time>
      </trkpt>
      <trkpt lat="45.31386" lon="5.71861">
        <ele>1514</ele>
        <time>2021-12-14T18:10:15Z</time>
      </trkpt>
      <trkpt lat="45.3138" lon="5.71845">
        <ele>1518</ele>
        <time>2021-12-14T18:10:25Z</time>
      </trkpt>
      <trkpt lat="45.31374" lon="5.71837">
        <ele>1520</ele>
        <time>2021-12-14T18:10:32Z</time>
      </trkpt>
      <trkpt lat="45.31369" lon="5.71809">
        <ele>1526</ele>
        <time>2021-12-14T18:10:48Z</time>
      </trkpt>
      <trkpt lat="45.31369" lon="5.71793">
        <ele>1530</ele>
        <time>2021-12-14T18:10:57Z</time>
      </trkpt>
      <trkpt lat="45.3136" lon="5.71775">
        <ele>1534</ele>
        <time>2021-12-14T18:11:09Z</time>
      </trkpt>
      <trkpt lat="45.31353" lon="5.71779">
        <ele>1533</ele>
        <time>2021-12-14T18:11:15Z</time>
      </trkpt>
      <trkpt lat="45.31353" lon="5.71771">
        <ele>1534</ele>
        <time>2021-12-14T18:11:20Z</time>
      </trkpt>
      <trkpt lat="45.31346" lon="5.71793">
        <ele>1530</ele>
        <time>2021-12-14T18:11:33Z</time>
      </trkpt>
      <trkpt lat="45.31315" lon="5.71802">
        <ele>1528</ele>
        <time>2021-12-14T18:11:59Z</time>
      </trkpt>
      <trkpt lat="45.31318" lon="5.71796">
        <ele>1529</ele>
        <time>2021-12-14T18:12:03Z</time>
      </trkpt>
      <trkpt lat="45.31317" lon="5.71793">
        <ele>1529</ele>
        <time>2021-12-14T18:12:05Z</time>
      </trkpt>
      <trkpt lat="45.31303" lon="5.71804">
        <ele>1527</ele>
        <time>2021-12-14T18:12:18Z</time>
      </trkpt>
      <trkpt lat="45.31299" lon="5.71804">
        <ele>1527</ele>
        <time>2021-12-14T18:12:21Z</time>
      </trkpt>
      <trkpt lat="45.31284" lon="5.71819">
        <ele>1524</ele>
        <time>2021-12-14T18:12:35Z</time>
      </trkpt>
      <trkpt lat="45.31263" lon="5.71817">
        <ele>1524</ele>
        <time>2021-12-14T18:12:52Z</time>
      </trkpt>
      <trkpt lat="45.31249" lon="5.71806">
        <ele>1525</ele>
        <time>2021-12-14T18:13:05Z</time>
      </trkpt>
      <trkpt lat="45.31249" lon="5.71799">
        <ele>1526</ele>
        <time>2021-12-14T18:13:09Z</time>
      </trkpt>
      <trkpt lat="45.31242" lon="5.71793">
        <ele>1525</ele>
        <time>2021-12-14T18:13:16Z</time>
      </trkpt>
      <trkpt lat="45.31241" lon="5.71786">
        <ele>1525</ele>
        <time>2021-12-14T18:13:20Z</time>
      </trkpt>
      <trkpt lat="45.3123" lon="5.71775">
        <ele>1523</ele>
        <time>2021-12-14T18:13:30Z</time>
      </trkpt>
      <trkpt lat="45.31225" lon="5.71758">
        <ele>1524</ele>
        <time>2021-12-14T18:13:41Z</time>
      </trkpt>
      <trkpt lat="45.31221" lon="5.71758">
        <ele>1523</ele>
        <time>2021-12-14T18:13:44Z</time>
      </trkpt>
      <trkpt lat="45.31223" lon="5.71741">
        <ele>1526</ele>
        <time>2021-12-14T18:13:54Z</time>
      </trkpt>
      <trkpt lat="45.31221" lon="5.71729">
        <ele>1527</ele>
        <time>2021-12-14T18:14:01Z</time>
      </trkpt>
      <trkpt lat="45.31216" lon="5.71722">
        <ele>1526</ele>
        <time>2021-12-14T18:14:06Z</time>
      </trkpt>
      <trkpt lat="45.31203" lon="5.71715">
        <ele>1523</ele>
        <time>2021-12-14T18:14:17Z</time>
      </trkpt>
      <trkpt lat="45.3118" lon="5.71694">
        <ele>1518</ele>
        <time>2021-12-14T18:14:39Z</time>
      </trkpt>
      <trkpt lat="45.3116" lon="5.71683">
        <ele>1514</ele>
        <time>2021-12-14T18:14:56Z</time>
      </trkpt>
      <trkpt lat="45.31129" lon="5.71655">
        <ele>1512</ele>
        <time>2021-12-14T18:15:26Z</time>
      </trkpt>
      <trkpt lat="45.31123" lon="5.71653">
        <ele>1511</ele>
        <time>2021-12-14T18:15:31Z</time>
      </trkpt>
      <trkpt lat="45.31123" lon="5.71648">
        <ele>1512</ele>
        <time>2021-12-14T18:15:34Z</time>
      </trkpt>
      <trkpt lat="45.31105" lon="5.71626">
        <ele>1515</ele>
        <time>2021-12-14T18:15:53Z</time>
      </trkpt>
      <trkpt lat="45.31094" lon="5.71624">
        <ele>1513</ele>
        <time>2021-12-14T18:16:01Z</time>
      </trkpt>
      <trkpt lat="45.31087" lon="5.71627">
        <ele>1510</ele>
        <time>2021-12-14T18:16:07Z</time>
      </trkpt>
      <trkpt lat="45.31064" lon="5.71614">
        <ele>1510</ele>
        <time>2021-12-14T18:16:27Z</time>
      </trkpt>
      <trkpt lat="45.31054" lon="5.71601">
        <ele>1511</ele>
        <time>2021-12-14T18:16:38Z</time>
      </trkpt>
      <trkpt lat="45.31023" lon="5.71576">
        <ele>1509</ele>
        <time>2021-12-14T18:17:06Z</time>
      </trkpt>
      <trkpt lat="45.31016" lon="5.71552">
        <ele>1512</ele>
        <time>2021-12-14T18:17:21Z</time>
      </trkpt>
      <trkpt lat="45.31008" lon="5.71536">
        <ele>1512</ele>
        <time>2021-12-14T18:17:32Z</time>
      </trkpt>
      <trkpt lat="45.31003" lon="5.71497">
        <ele>1517</ele>
        <time>2021-12-14T18:17:54Z</time>
      </trkpt>
      <trkpt lat="45.30984" lon="5.71454">
        <ele>1518</ele>
        <time>2021-12-14T18:18:23Z</time>
      </trkpt>
      <trkpt lat="45.30977" lon="5.71419">
        <ele>1521</ele>
        <time>2021-12-14T18:18:44Z</time>
      </trkpt>
      <trkpt lat="45.30974" lon="5.71387">
        <ele>1526</ele>
        <time>2021-12-14T18:19:02Z</time>
      </trkpt>
      <trkpt lat="45.30956" lon="5.71359">
        <ele>1523</ele>
        <time>2021-12-14T18:19:23Z</time>
      </trkpt>
      <trkpt lat="45.30953" lon="5.71335">
        <ele>1526</ele>
        <time>2021-12-14T18:19:37Z</time>
      </trkpt>
      <trkpt lat="45.30947" lon="5.71324">
        <ele>1525</ele>
        <time>2021-12-14T18:19:45Z</time>
      </trkpt>
      <trkpt lat="45.30951" lon="5.71317">
        <ele>1529</ele>
        <time>2021-12-14T18:19:50Z</time>
      </trkpt>
      <trkpt lat="45.30947" lon="5.71302">
        <ele>1531</ele>
        <time>2021-12-14T18:19:59Z</time>
      </trkpt>
      <trkpt lat="45.3095" lon="5.71278">
        <ele>1538</ele>
        <time>2021-12-14T18:20:12Z</time>
      </trkpt>
      <trkpt lat="45.30945" lon="5.71254">
        <ele>1542</ele>
        <time>2021-12-14T18:20:27Z</time>
      </trkpt>
      <trkpt lat="45.30945" lon="5.71257">
        <ele>1541</ele>
        <time>2021-12-14T18:20:28Z</time>
      </trkpt>
      <trkpt lat="45.30926" lon="5.71199">
        <ele>1544</ele>
        <time>2021-12-14T18:21:04Z</time>
      </trkpt>
      <trkpt lat="45.30924" lon="5.7119">
        <ele>1545</ele>
        <time>2021-12-14T18:21:10Z</time>
      </trkpt>
      <trkpt lat="45.30926" lon="5.7117">
        <ele>1550</ele>
        <time>2021-12-14T18:21:21Z</time>
      </trkpt>
      <trkpt lat="45.30919" lon="5.7116">
        <ele>1548</ele>
        <time>2021-12-14T18:21:29Z</time>
      </trkpt>
      <trkpt lat="45.30913" lon="5.71138">
        <ele>1549</ele>
        <time>2021-12-14T18:21:42Z</time>
      </trkpt>
      <trkpt lat="45.30919" lon="5.71087">
        <ele>1557</ele>
        <time>2021-12-14T18:22:11Z</time>
      </trkpt>
      <trkpt lat="45.30919" lon="5.71059">
        <ele>1560</ele>
        <time>2021-12-14T18:22:27Z</time>
      </trkpt>
      <trkpt lat="45.30913" lon="5.71027">
        <ele>1562</ele>
        <time>2021-12-14T18:22:46Z</time>
      </trkpt>
      <trkpt lat="45.30914" lon="5.70991">
        <ele>1565</ele>
        <time>2021-12-14T18:23:06Z</time>
      </trkpt>
      <trkpt lat="45.30919" lon="5.70989">
        <ele>1567</ele>
        <time>2021-12-14T18:23:10Z</time>
      </trkpt>
      <trkpt lat="45.30919" lon="5.70972">
        <ele>1569</ele>
        <time>2021-12-14T18:23:20Z</time>
      </trkpt>
      <trkpt lat="45.30925" lon="5.70955">
        <ele>1574</ele>
        <time>2021-12-14T18:23:30Z</time>
      </trkpt>
      <trkpt lat="45.30917" lon="5.70942">
        <ele>1571</ele>
        <time>2021-12-14T18:23:40Z</time>
      </trkpt>
      <trkpt lat="45.30911" lon="5.70918">
        <ele>1574</ele>
        <time>2021-12-14T18:23:55Z</time>
      </trkpt>
      <trkpt lat="45.30914" lon="5.70894">
        <ele>1574</ele>
        <time>2021-12-14T18:24:08Z</time>
      </trkpt>
      <trkpt lat="45.30915" lon="5.70839">
        <ele>1573</ele>
        <time>2021-12-14T18:24:39Z</time>
      </trkpt>
      <trkpt lat="45.30913" lon="5.70819">
        <ele>1573</ele>
        <time>2021-12-14T18:24:51Z</time>
      </trkpt>
      <trkpt lat="45.30907" lon="5.70827">
        <ele>1575</ele>
        <time>2021-12-14T18:24:57Z</time>
      </trkpt>
      <trkpt lat="45.30914" lon="5.7077">
        <ele>1569</ele>
        <time>2021-12-14T18:25:30Z</time>
      </trkpt>
      <trkpt lat="45.30928" lon="5.70727">
        <ele>1574</ele>
        <time>2021-12-14T18:25:56Z</time>
      </trkpt>
      <trkpt lat="45.30949" lon="5.70683">
        <ele>1584</ele>
        <time>2021-12-14T18:26:26Z</time>
      </trkpt>
      <trkpt lat="45.30974" lon="5.70663">
        <ele>1589</ele>
        <time>2021-12-14T18:26:49Z</time>
      </trkpt>
      <trkpt lat="45.3098" lon="5.70652">
        <ele>1591</ele>
        <time>2021-12-14T18:26:57Z</time>
      </trkpt>
      <trkpt lat="45.31006" lon="5.70621">
        <ele>1597</ele>
        <time>2021-12-14T18:27:24Z</time>
      </trkpt>
      <trkpt lat="45.3101" lon="5.70613">
        <ele>1598</ele>
        <time>2021-12-14T18:27:30Z</time>
      </trkpt>
      <trkpt lat="45.31045" lon="5.70571">
        <ele>1614</ele>
        <time>2021-12-14T18:28:07Z</time>
      </trkpt>
      <trkpt lat="45.31048" lon="5.70585">
        <ele>1615</ele>
        <time>2021-12-14T18:28:15Z</time>
      </trkpt>
      <trkpt lat="45.31056" lon="5.70597">
        <ele>1621</ele>
        <time>2021-12-14T18:28:24Z</time>
      </trkpt>
      <trkpt lat="45.31072" lon="5.7059">
        <ele>1628</ele>
        <time>2021-12-14T18:28:38Z</time>
      </trkpt>
      <trkpt lat="45.31085" lon="5.70563">
        <ele>1630</ele>
        <time>2021-12-14T18:28:56Z</time>
      </trkpt>
      <trkpt lat="45.31096" lon="5.70547">
        <ele>1631</ele>
        <time>2021-12-14T18:29:09Z</time>
      </trkpt>
      <trkpt lat="45.31101" lon="5.70534">
        <ele>1630</ele>
        <time>2021-12-14T18:29:17Z</time>
      </trkpt>
      <trkpt lat="45.31107" lon="5.70531">
        <ele>1631</ele>
        <time>2021-12-14T18:29:22Z</time>
      </trkpt>
      <trkpt lat="45.31102" lon="5.70545">
        <ele>1632</ele>
        <time>2021-12-14T18:29:31Z</time>
      </trkpt>
      <trkpt lat="45.311" lon="5.70544">
        <ele>1631</ele>
        <time>2021-12-14T18:29:33Z</time>
      </trkpt>
      <trkpt lat="45.31108" lon="5.7055">
        <ele>1634</ele>
        <time>2021-12-14T18:29:40Z</time>
      </trkpt>
      <trkpt lat="45.31116" lon="5.70543">
        <ele>1636</ele>
        <time>2021-12-14T18:29:47Z</time>
      </trkpt>
      <trkpt lat="45.31139" lon="5.70545">
        <ele>1642</ele>
        <time>2021-12-14T18:30:06Z</time>
      </trkpt>
      <trkpt lat="45.31164" lon="5.70538">
        <ele>1648</ele>
        <time>2021-12-14T18:30:26Z</time>
      </trkpt>
      <trkpt lat="45.31173" lon="5.70527">
        <ele>1648</ele>
        <time>2021-12-14T18:30:36Z</time>
      </trkpt>
      <trkpt lat="45.31185" lon="5.70524">
        <ele>1651</ele>
        <time>2021-12-14T18:30:45Z</time>
      </trkpt>
      <trkpt lat="45.31192" lon="5.70547">
        <ele>1657</ele>
        <time>2021-12-14T18:31:00Z</time>
      </trkpt>
      <trkpt lat="45.31205" lon="5.7054">
        <ele>1659</ele>
        <time>2021-12-14T18:31:11Z</time>
      </trkpt>
      <trkpt lat="45.31216" lon="5.70544">
        <ele>1663</ele>
        <time>2021-12-14T18:31:20Z</time>
      </trkpt>
      <trkpt lat="45.31225" lon="5.70553">
        <ele>1667</ele>
        <time>2021-12-14T18:31:29Z</time>
      </trkpt>
      <trkpt lat="45.31239" lon="5.70558">
        <ele>1673</ele>
        <time>2021-12-14T18:31:40Z</time>
      </trkpt>
      <trkpt lat="45.31243" lon="5.70565">
        <ele>1676</ele>
        <time>2021-12-14T18:31:45Z</time>
      </trkpt>
      <trkpt lat="45.31237" lon="5.70581">
        <ele>1678</ele>
        <time>2021-12-14T18:31:55Z</time>
      </trkpt>
      <trkpt lat="45.31245" lon="5.70587">
        <ele>1682</ele>
        <time>2021-12-14T18:32:03Z</time>
      </trkpt>
      <trkpt lat="45.31265" lon="5.70592">
        <ele>1687</ele>
        <time>2021-12-14T18:32:19Z</time>
      </trkpt>
      <trkpt lat="45.31275" lon="5.70588">
        <ele>1688</ele>
        <time>2021-12-14T18:32:27Z</time>
      </trkpt>
      <trkpt lat="45.31286" lon="5.7059">
        <ele>1690</ele>
        <time>2021-12-14T18:32:36Z</time>
      </trkpt>
      <trkpt lat="45.31285" lon="5.70599">
        <ele>1692</ele>
        <time>2021-12-14T18:32:41Z</time>
      </trkpt>
      <trkpt lat="45.31275" lon="5.70609">
        <ele>1692</ele>
        <time>2021-12-14T18:32:51Z</time>
      </trkpt>
      <trkpt lat="45.31271" lon="5.70618">
        <ele>1693</ele>
        <time>2021-12-14T18:32:57Z</time>
      </trkpt>
      <trkpt lat="45.31267" lon="5.70634">
        <ele>1696</ele>
        <time>2021-12-14T18:33:07Z</time>
      </trkpt>
      <trkpt lat="45.31273" lon="5.70642">
        <ele>1699</ele>
        <time>2021-12-14T18:33:13Z</time>
      </trkpt>
      <trkpt lat="45.31274" lon="5.70648">
        <ele>1700</ele>
        <time>2021-12-14T18:33:17Z</time>
      </trkpt>
      <trkpt lat="45.31295" lon="5.70652">
        <ele>1706</ele>
        <time>2021-12-14T18:33:34Z</time>
      </trkpt>
      <trkpt lat="45.31309" lon="5.70645">
        <ele>1707</ele>
        <time>2021-12-14T18:33:46Z</time>
      </trkpt>
      <trkpt lat="45.31354" lon="5.70637">
        <ele>1711</ele>
        <time>2021-12-14T18:34:22Z</time>
      </trkpt>
      <trkpt lat="45.31422" lon="5.70632">
        <ele>1712</ele>
        <time>2021-12-14T18:35:16Z</time>
      </trkpt>
      <trkpt lat="45.31448" lon="5.70633">
        <ele>1716</ele>
        <time>2021-12-14T18:35:37Z</time>
      </trkpt>
      <trkpt lat="45.31476" lon="5.70624">
        <ele>1721</ele>
        <time>2021-12-14T18:36:00Z</time>
      </trkpt>
      <trkpt lat="45.31491" lon="5.70615">
        <ele>1724</ele>
        <time>2021-12-14T18:36:13Z</time>
      </trkpt>
      <trkpt lat="45.31502" lon="5.70605">
        <ele>1727</ele>
        <time>2021-12-14T18:36:24Z</time>
      </trkpt>
      <trkpt lat="45.31507" lon="5.70588">
        <ele>1730</ele>
        <time>2021-12-14T18:36:34Z</time>
      </trkpt>
      <trkpt lat="45.31516" lon="5.70583">
        <ele>1732</ele>
        <time>2021-12-14T18:36:42Z</time>
      </trkpt>
      <trkpt lat="45.31525" lon="5.70574">
        <ele>1733</ele>
        <time>2021-12-14T18:36:51Z</time>
      </trkpt>
      <trkpt lat="45.31534" lon="5.70573">
        <ele>1734</ele>
        <time>2021-12-14T18:36:58Z</time>
      </trkpt>
      <trkpt lat="45.31562" lon="5.70559">
        <ele>1739</ele>
        <time>2021-12-14T18:37:22Z</time>
      </trkpt>
      <trkpt lat="45.31564" lon="5.7055">
        <ele>1739</ele>
        <time>2021-12-14T18:37:27Z</time>
      </trkpt>
      <trkpt lat="45.31584" lon="5.70533">
        <ele>1744</ele>
        <time>2021-12-14T18:37:46Z</time>
      </trkpt>
      <trkpt lat="45.31605" lon="5.7051">
        <ele>1744</ele>
        <time>2021-12-14T18:38:07Z</time>
      </trkpt>
      <trkpt lat="45.3162" lon="5.70488">
        <ele>1746</ele>
        <time>2021-12-14T18:38:24Z</time>
      </trkpt>
      <trkpt lat="45.31625" lon="5.70472">
        <ele>1747</ele>
        <time>2021-12-14T18:38:34Z</time>
      </trkpt>
      <trkpt lat="45.31641" lon="5.70448">
        <ele>1750</ele>
        <time>2021-12-14T18:38:52Z</time>
      </trkpt>
      <trkpt lat="45.31653" lon="5.70435">
        <ele>1751</ele>
        <time>2021-12-14T18:39:05Z</time>
      </trkpt>
      <trkpt lat="45.31659" lon="5.70421">
        <ele>1753</ele>
        <time>2021-12-14T18:39:14Z</time>
      </trkpt>
      <trkpt lat="45.31647" lon="5.70385">
        <ele>1751</ele>
        <time>2021-12-14T18:39:36Z</time>
      </trkpt>
      <trkpt lat="45.31636" lon="5.7038">
        <ele>1751</ele>
        <time>2021-12-14T18:39:45Z</time>
      </trkpt>
      <trkpt lat="45.3163" lon="5.70374">
        <ele>1751</ele>
        <time>2021-12-14T18:39:51Z</time>
      </trkpt>
      <trkpt lat="45.31629" lon="5.70369">
        <ele>1750</ele>
        <time>2021-12-14T18:39:54Z</time>
      </trkpt>
      <trkpt lat="45.31623" lon="5.70378">
        <ele>1751</ele>
        <time>2021-12-14T18:40:01Z</time>
      </trkpt>
      <trkpt lat="45.3163" lon="5.70375">
        <ele>1751</ele>
        <time>2021-12-14T18:40:07Z</time>
      </trkpt>
      <trkpt lat="45.31627" lon="5.70377">
        <ele>1751</ele>
        <time>2021-12-14T18:40:10Z</time>
      </trkpt>
      <trkpt lat="45.3163" lon="5.70373">
        <ele>1750</ele>
        <time>2021-12-14T18:40:13Z</time>
      </trkpt>
      <trkpt lat="45.31629" lon="5.70376">
        <ele>1751</ele>
        <time>2021-12-14T18:40:15Z</time>
      </trkpt>
      <trkpt lat="45.31631" lon="5.70376">
        <ele>1751</ele>
        <time>2021-12-14T18:40:17Z</time>
      </trkpt>
      <trkpt lat="45.31631" lon="5.70373">
        <ele>1750</ele>
        <time>2021-12-14T18:40:18Z</time>
      </trkpt>
      <trkpt lat="45.31629" lon="5.70381">
        <ele>1751</ele>
        <time>2021-12-14T18:40:23Z</time>
      </trkpt>
      <trkpt lat="45.31627" lon="5.70377">
        <ele>1751</ele>
        <time>2021-12-14T18:40:26Z</time>
      </trkpt>
      <trkpt lat="45.31629" lon="5.70372">
        <ele>1750</ele>
        <time>2021-12-14T18:40:29Z</time>
      </trkpt>
      <trkpt lat="45.31632" lon="5.70379">
        <ele>1751</ele>
        <time>2021-12-14T18:40:34Z</time>
      </trkpt>
      <trkpt lat="45.31629" lon="5.70373">
        <ele>1751</ele>
        <time>2021-12-14T18:40:38Z</time>
      </trkpt>
      <trkpt lat="45.31622" lon="5.70263">
        <ele>1745</ele>
        <time>2021-12-14T18:41:40Z</time>
      </trkpt>
      <trkpt lat="45.31624" lon="5.70242">
        <ele>1744</ele>
        <time>2021-12-14T18:41:52Z</time>
      </trkpt>
      <trkpt lat="45.31629" lon="5.70244">
        <ele>1744</ele>
        <time>2021-12-14T18:41:56Z</time>
      </trkpt>
      <trkpt lat="45.31642" lon="5.70243">
        <ele>1743</ele>
        <time>2021-12-14T18:42:06Z</time>
      </trkpt>
      <trkpt lat="45.31657" lon="5.70228">
        <ele>1743</ele>
        <time>2021-12-14T18:42:21Z</time>
      </trkpt>
      <trkpt lat="45.31674" lon="5.70216">
        <ele>1742</ele>
        <time>2021-12-14T18:42:36Z</time>
      </trkpt>
      <trkpt lat="45.31685" lon="5.70212">
        <ele>1739</ele>
        <time>2021-12-14T18:42:45Z</time>
      </trkpt>
      <trkpt lat="45.31704" lon="5.70216">
        <ele>1735</ele>
        <time>2021-12-14T18:43:01Z</time>
      </trkpt>
      <trkpt lat="45.31732" lon="5.7023">
        <ele>1729</ele>
        <time>2021-12-14T18:43:25Z</time>
      </trkpt>
      <trkpt lat="45.31787" lon="5.70177">
        <ele>1713</ele>
        <time>2021-12-14T18:44:18Z</time>
      </trkpt>
      <trkpt lat="45.31792" lon="5.70174">
        <ele>1711</ele>
        <time>2021-12-14T18:44:22Z</time>
      </trkpt>
      <trkpt lat="45.31811" lon="5.70171">
        <ele>1705</ele>
        <time>2021-12-14T18:44:37Z</time>
      </trkpt>
      <trkpt lat="45.31835" lon="5.7016">
        <ele>1699</ele>
        <time>2021-12-14T18:44:58Z</time>
      </trkpt>
      <trkpt lat="45.31843" lon="5.7016">
        <ele>1696</ele>
        <time>2021-12-14T18:45:04Z</time>
      </trkpt>
      <trkpt lat="45.31848" lon="5.70147">
        <ele>1699</ele>
        <time>2021-12-14T18:45:12Z</time>
      </trkpt>
      <trkpt lat="45.31864" lon="5.70129">
        <ele>1700</ele>
        <time>2021-12-14T18:45:29Z</time>
      </trkpt>
      <trkpt lat="45.31878" lon="5.70124">
        <ele>1697</ele>
        <time>2021-12-14T18:45:40Z</time>
      </trkpt>
      <trkpt lat="45.31901" lon="5.70128">
        <ele>1688</ele>
        <time>2021-12-14T18:45:59Z</time>
      </trkpt>
      <trkpt lat="45.31912" lon="5.70144">
        <ele>1677</ele>
        <time>2021-12-14T18:46:11Z</time>
      </trkpt>
      <trkpt lat="45.31929" lon="5.70162">
        <ele>1666</ele>
        <time>2021-12-14T18:46:28Z</time>
      </trkpt>
      <trkpt lat="45.31983" lon="5.70235">
        <ele>1635</ele>
        <time>2021-12-14T18:47:28Z</time>
      </trkpt>
      <trkpt lat="45.31999" lon="5.70269">
        <ele>1623</ele>
        <time>2021-12-14T18:47:51Z</time>
      </trkpt>
      <trkpt lat="45.31995" lon="5.7028">
        <ele>1622</ele>
        <time>2021-12-14T18:47:58Z</time>
      </trkpt>
      <trkpt lat="45.31991" lon="5.70278">
        <ele>1623</ele>
        <time>2021-12-14T18:48:01Z</time>
      </trkpt>
      <trkpt lat="45.31992" lon="5.70274">
        <ele>1624</ele>
        <time>2021-12-14T18:48:04Z</time>
      </trkpt>
      <trkpt lat="45.31991" lon="5.70276">
        <ele>1623</ele>
        <time>2021-12-14T18:48:05Z</time>
      </trkpt>
      <trkpt lat="45.31994" lon="5.70279">
        <ele>1622</ele>
        <time>2021-12-14T18:48:08Z</time>
      </trkpt>
      <trkpt lat="45.31991" lon="5.70284">
        <ele>1622</ele>
        <time>2021-12-14T18:48:12Z</time>
      </trkpt>
      <trkpt lat="45.32002" lon="5.70319">
        <ele>1614</ele>
        <time>2021-12-14T18:48:33Z</time>
      </trkpt>
      <trkpt lat="45.3201" lon="5.70335">
        <ele>1611</ele>
        <time>2021-12-14T18:48:44Z</time>
      </trkpt>
      <trkpt lat="45.32023" lon="5.70348">
        <ele>1609</ele>
        <time>2021-12-14T18:48:57Z</time>
      </trkpt>
      <trkpt lat="45.32046" lon="5.70364">
        <ele>1605</ele>
        <time>2021-12-14T18:49:18Z</time>
      </trkpt>
      <trkpt lat="45.32055" lon="5.70368">
        <ele>1604</ele>
        <time>2021-12-14T18:49:25Z</time>
      </trkpt>
      <trkpt lat="45.32079" lon="5.70371">
        <ele>1600</ele>
        <time>2021-12-14T18:49:45Z</time>
      </trkpt>
      <trkpt lat="45.32133" lon="5.70385">
        <ele>1595</ele>
        <time>2021-12-14T18:50:28Z</time>
      </trkpt>
      <trkpt lat="45.3218" lon="5.70418">
        <ele>1584</ele>
        <time>2021-12-14T18:51:10Z</time>
      </trkpt>
      <trkpt lat="45.32198" lon="5.70441">
        <ele>1580</ele>
        <time>2021-12-14T18:51:30Z</time>
      </trkpt>
      <trkpt lat="45.32206" lon="5.70459">
        <ele>1576</ele>
        <time>2021-12-14T18:51:42Z</time>
      </trkpt>
      <trkpt lat="45.32224" lon="5.70482">
        <ele>1570</ele>
        <time>2021-12-14T18:52:01Z</time>
      </trkpt>
      <trkpt lat="45.32239" lon="5.70522">
        <ele>1563</ele>
        <time>2021-12-14T18:52:27Z</time>
      </trkpt>
      <trkpt lat="45.32263" lon="5.7057">
        <ele>1557</ele>
        <time>2021-12-14T18:53:00Z</time>
      </trkpt>
      <trkpt lat="45.32299" lon="5.70618">
        <ele>1560</ele>
        <time>2021-12-14T18:53:39Z</time>
      </trkpt>
      <trkpt lat="45.32316" lon="5.70637">
        <ele>1561</ele>
        <time>2021-12-14T18:53:57Z</time>
      </trkpt>
      <trkpt lat="45.32325" lon="5.70662">
        <ele>1561</ele>
        <time>2021-12-14T18:54:12Z</time>
      </trkpt>
      <trkpt lat="45.3235" lon="5.70691">
        <ele>1562</ele>
        <time>2021-12-14T18:54:38Z</time>
      </trkpt>
      <trkpt lat="45.32352" lon="5.70672">
        <ele>1561</ele>
        <time>2021-12-14T18:54:49Z</time>
      </trkpt>
      <trkpt lat="45.32337" lon="5.7066">
        <ele>1560</ele>
        <time>2021-12-14T18:55:03Z</time>
      </trkpt>
      <trkpt lat="45.3234" lon="5.70683">
        <ele>1561</ele>
        <time>2021-12-14T18:55:16Z</time>
      </trkpt>
      <trkpt lat="45.32353" lon="5.70698">
        <ele>1562</ele>
        <time>2021-12-14T18:55:29Z</time>
      </trkpt>
      <trkpt lat="45.32344" lon="5.70659">
        <ele>1561</ele>
        <time>2021-12-14T18:55:53Z</time>
      </trkpt>
      <trkpt lat="45.32346" lon="5.70675">
        <ele>1561</ele>
        <time>2021-12-14T18:56:02Z</time>
      </trkpt>
      <trkpt lat="45.32349" lon="5.70678">
        <ele>1561</ele>
        <time>2021-12-14T18:56:05Z</time>
      </trkpt>
      <trkpt lat="45.32349" lon="5.7069">
        <ele>1562</ele>
        <time>2021-12-14T18:56:11Z</time>
      </trkpt>
      <trkpt lat="45.32347" lon="5.70689">
        <ele>1561</ele>
        <time>2021-12-14T18:56:13Z</time>
      </trkpt>
      <trkpt lat="45.32359" lon="5.70687">
        <ele>1562</ele>
        <time>2021-12-14T18:56:23Z</time>
      </trkpt>
      <trkpt lat="45.32375" lon="5.70697">
        <ele>1562</ele>
        <time>2021-12-14T18:56:37Z</time>
      </trkpt>
      <trkpt lat="45.32441" lon="5.7072">
        <ele>1561</ele>
        <time>2021-12-14T18:57:31Z</time>
      </trkpt>
      <trkpt lat="45.32442" lon="5.70722">
        <ele>1561</ele>
        <time>2021-12-14T18:57:33Z</time>
      </trkpt>
      <trkpt lat="45.32442" lon="5.70716">
        <ele>1561</ele>
        <time>2021-12-14T18:57:36Z</time>
      </trkpt>
      <trkpt lat="45.32444" lon="5.70715">
        <ele>1561</ele>
        <time>2021-12-14T18:57:38Z</time>
      </trkpt>
      <trkpt lat="45.32442" lon="5.70719">
        <ele>1561</ele>
        <time>2021-12-14T18:57:40Z</time>
      </trkpt>
      <trkpt lat="45.32445" lon="5.70724">
        <ele>1561</ele>
        <time>2021-12-14T18:57:44Z</time>
      </trkpt>
      <trkpt lat="45.32464" lon="5.7073">
        <ele>1560</ele>
        <time>2021-12-14T18:58:00Z</time>
      </trkpt>
      <trkpt lat="45.32479" lon="5.70741">
        <ele>1559</ele>
        <time>2021-12-14T18:58:13Z</time>
      </trkpt>
      <trkpt lat="45.32497" lon="5.70737">
        <ele>1558</ele>
        <time>2021-12-14T18:58:28Z</time>
      </trkpt>
      <trkpt lat="45.32516" lon="5.70723">
        <ele>1554</ele>
        <time>2021-12-14T18:58:45Z</time>
      </trkpt>
      <trkpt lat="45.32547" lon="5.70725">
        <ele>1548</ele>
        <time>2021-12-14T18:59:10Z</time>
      </trkpt>
      <trkpt lat="45.32572" lon="5.70735">
        <ele>1545</ele>
        <time>2021-12-14T18:59:31Z</time>
      </trkpt>
      <trkpt lat="45.32588" lon="5.70737">
        <ele>1543</ele>
        <time>2021-12-14T18:59:43Z</time>
      </trkpt>
      <trkpt lat="45.32613" lon="5.70729">
        <ele>1538</ele>
        <time>2021-12-14T19:00:04Z</time>
      </trkpt>
      <trkpt lat="45.32641" lon="5.70728">
        <ele>1534</ele>
        <time>2021-12-14T19:00:26Z</time>
      </trkpt>
      <trkpt lat="45.32659" lon="5.70731">
        <ele>1532</ele>
        <time>2021-12-14T19:00:41Z</time>
      </trkpt>
      <trkpt lat="45.32674" lon="5.70738">
        <ele>1531</ele>
        <time>2021-12-14T19:00:54Z</time>
      </trkpt>
      <trkpt lat="45.32697" lon="5.70759">
        <ele>1529</ele>
        <time>2021-12-14T19:01:15Z</time>
      </trkpt>
      <trkpt lat="45.32727" lon="5.70805">
        <ele>1527</ele>
        <time>2021-12-14T19:01:51Z</time>
      </trkpt>
      <trkpt lat="45.32787" lon="5.70835">
        <ele>1517</ele>
        <time>2021-12-14T19:02:42Z</time>
      </trkpt>
      <trkpt lat="45.32829" lon="5.70868">
        <ele>1514</ele>
        <time>2021-12-14T19:03:20Z</time>
      </trkpt>
      <trkpt lat="45.32856" lon="5.70875">
        <ele>1515</ele>
        <time>2021-12-14T19:03:42Z</time>
      </trkpt>
      <trkpt lat="45.32864" lon="5.70873">
        <ele>1515</ele>
        <time>2021-12-14T19:03:49Z</time>
      </trkpt>
      <trkpt lat="45.32876" lon="5.70876">
        <ele>1516</ele>
        <time>2021-12-14T19:03:58Z</time>
      </trkpt>
      <trkpt lat="45.32902" lon="5.70872">
        <ele>1517</ele>
        <time>2021-12-14T19:04:19Z</time>
      </trkpt>
      <trkpt lat="45.32972" lon="5.70875">
        <ele>1528</ele>
        <time>2021-12-14T19:05:15Z</time>
      </trkpt>
      <trkpt lat="45.32985" lon="5.70874">
        <ele>1531</ele>
        <time>2021-12-14T19:05:26Z</time>
      </trkpt>
      <trkpt lat="45.32997" lon="5.70869">
        <ele>1533</ele>
        <time>2021-12-14T19:05:36Z</time>
      </trkpt>
      <trkpt lat="45.3301" lon="5.70867">
        <ele>1536</ele>
        <time>2021-12-14T19:05:46Z</time>
      </trkpt>
      <trkpt lat="45.3302" lon="5.70868">
        <ele>1538</ele>
        <time>2021-12-14T19:05:54Z</time>
      </trkpt>
      <trkpt lat="45.33018" lon="5.70854">
        <ele>1538</ele>
        <time>2021-12-14T19:06:02Z</time>
      </trkpt>
      <trkpt lat="45.33034" lon="5.70857">
        <ele>1541</ele>
        <time>2021-12-14T19:06:15Z</time>
      </trkpt>
      <trkpt lat="45.33036" lon="5.70845">
        <ele>1542</ele>
        <time>2021-12-14T19:06:22Z</time>
      </trkpt>
      <trkpt lat="45.33062" lon="5.70848">
        <ele>1546</ele>
        <time>2021-12-14T19:06:43Z</time>
      </trkpt>
      <trkpt lat="45.33067" lon="5.70845">
        <ele>1547</ele>
        <time>2021-12-14T19:06:47Z</time>
      </trkpt>
      <trkpt lat="45.33065" lon="5.70837">
        <ele>1548</ele>
        <time>2021-12-14T19:06:52Z</time>
      </trkpt>
      <trkpt lat="45.33079" lon="5.70834">
        <ele>1550</ele>
        <time>2021-12-14T19:07:04Z</time>
      </trkpt>
      <trkpt lat="45.33095" lon="5.70837">
        <ele>1554</ele>
        <time>2021-12-14T19:07:16Z</time>
      </trkpt>
      <trkpt lat="45.3311" lon="5.70835">
        <ele>1557</ele>
        <time>2021-12-14T19:07:28Z</time>
      </trkpt>
      <trkpt lat="45.3311" lon="5.70827">
        <ele>1560</ele>
        <time>2021-12-14T19:07:33Z</time>
      </trkpt>
      <trkpt lat="45.33115" lon="5.70821">
        <ele>1564</ele>
        <time>2021-12-14T19:07:38Z</time>
      </trkpt>
      <trkpt lat="45.3313" lon="5.70819">
        <ele>1568</ele>
        <time>2021-12-14T19:07:50Z</time>
      </trkpt>
      <trkpt lat="45.33137" lon="5.70823">
        <ele>1568</ele>
        <time>2021-12-14T19:07:56Z</time>
      </trkpt>
      <trkpt lat="45.33158" lon="5.7082">
        <ele>1574</ele>
        <time>2021-12-14T19:08:13Z</time>
      </trkpt>
      <trkpt lat="45.33166" lon="5.70826">
        <ele>1574</ele>
        <time>2021-12-14T19:08:20Z</time>
      </trkpt>
      <trkpt lat="45.33173" lon="5.70837">
        <ele>1573</ele>
        <time>2021-12-14T19:08:29Z</time>
      </trkpt>
      <trkpt lat="45.33191" lon="5.70847">
        <ele>1577</ele>
        <time>2021-12-14T19:08:44Z</time>
      </trkpt>
      <trkpt lat="45.332" lon="5.70844">
        <ele>1579</ele>
        <time>2021-12-14T19:08:52Z</time>
      </trkpt>
      <trkpt lat="45.33219" lon="5.70832">
        <ele>1586</ele>
        <time>2021-12-14T19:09:08Z</time>
      </trkpt>
      <trkpt lat="45.33243" lon="5.7084">
        <ele>1591</ele>
        <time>2021-12-14T19:09:28Z</time>
      </trkpt>
      <trkpt lat="45.33266" lon="5.70856">
        <ele>1595</ele>
        <time>2021-12-14T19:09:49Z</time>
      </trkpt>
      <trkpt lat="45.33288" lon="5.7088">
        <ele>1597</ele>
        <time>2021-12-14T19:10:11Z</time>
      </trkpt>
      <trkpt lat="45.33297" lon="5.70882">
        <ele>1599</ele>
        <time>2021-12-14T19:10:18Z</time>
      </trkpt>
      <trkpt lat="45.33299" lon="5.70886">
        <ele>1598</ele>
        <time>2021-12-14T19:10:21Z</time>
      </trkpt>
      <trkpt lat="45.3333" lon="5.70909">
        <ele>1602</ele>
        <time>2021-12-14T19:10:49Z</time>
      </trkpt>
      <trkpt lat="45.33352" lon="5.70934">
        <ele>1606</ele>
        <time>2021-12-14T19:11:11Z</time>
      </trkpt>
      <trkpt lat="45.33363" lon="5.70943">
        <ele>1608</ele>
        <time>2021-12-14T19:11:22Z</time>
      </trkpt>
      <trkpt lat="45.33375" lon="5.70972">
        <ele>1609</ele>
        <time>2021-12-14T19:11:40Z</time>
      </trkpt>
      <trkpt lat="45.33413" lon="5.71006">
        <ele>1613</ele>
        <time>2021-12-14T19:12:16Z</time>
      </trkpt>
      <trkpt lat="45.33427" lon="5.7103">
        <ele>1618</ele>
        <time>2021-12-14T19:12:34Z</time>
      </trkpt>
      <trkpt lat="45.33451" lon="5.71053">
        <ele>1624</ele>
        <time>2021-12-14T19:12:57Z</time>
      </trkpt>
      <trkpt lat="45.33462" lon="5.71067">
        <ele>1626</ele>
        <time>2021-12-14T19:13:09Z</time>
      </trkpt>
      <trkpt lat="45.33462" lon="5.71078">
        <ele>1625</ele>
        <time>2021-12-14T19:13:15Z</time>
      </trkpt>
      <trkpt lat="45.33472" lon="5.71088">
        <ele>1626</ele>
        <time>2021-12-14T19:13:25Z</time>
      </trkpt>
      <trkpt lat="45.33485" lon="5.71093">
        <ele>1629</ele>
        <time>2021-12-14T19:13:36Z</time>
      </trkpt>
      <trkpt lat="45.33493" lon="5.711">
        <ele>1630</ele>
        <time>2021-12-14T19:13:43Z</time>
      </trkpt>
      <trkpt lat="45.33508" lon="5.71107">
        <ele>1633</ele>
        <time>2021-12-14T19:13:56Z</time>
      </trkpt>
      <trkpt lat="45.33529" lon="5.71107">
        <ele>1639</ele>
        <time>2021-12-14T19:14:13Z</time>
      </trkpt>
      <trkpt lat="45.3354" lon="5.7111">
        <ele>1643</ele>
        <time>2021-12-14T19:14:22Z</time>
      </trkpt>
      <trkpt lat="45.33541" lon="5.71105">
        <ele>1643</ele>
        <time>2021-12-14T19:14:25Z</time>
      </trkpt>
      <trkpt lat="45.33563" lon="5.71118">
        <ele>1649</ele>
        <time>2021-12-14T19:14:44Z</time>
      </trkpt>
      <trkpt lat="45.3358" lon="5.71122">
        <ele>1654</ele>
        <time>2021-12-14T19:14:57Z</time>
      </trkpt>
      <trkpt lat="45.33629" lon="5.7115">
        <ele>1665</ele>
        <time>2021-12-14T19:15:40Z</time>
      </trkpt>
      <trkpt lat="45.33637" lon="5.71158">
        <ele>1666</ele>
        <time>2021-12-14T19:15:48Z</time>
      </trkpt>
      <trkpt lat="45.33665" lon="5.71177">
        <ele>1672</ele>
        <time>2021-12-14T19:16:12Z</time>
      </trkpt>
      <trkpt lat="45.33666" lon="5.71185">
        <ele>1672</ele>
        <time>2021-12-14T19:16:17Z</time>
      </trkpt>
      <trkpt lat="45.3367" lon="5.71192">
        <ele>1674</ele>
        <time>2021-12-14T19:16:22Z</time>
      </trkpt>
      <trkpt lat="45.33706" lon="5.71207">
        <ele>1680</ele>
        <time>2021-12-14T19:16:52Z</time>
      </trkpt>
      <trkpt lat="45.33718" lon="5.71216">
        <ele>1681</ele>
        <time>2021-12-14T19:17:03Z</time>
      </trkpt>
      <trkpt lat="45.33734" lon="5.71223">
        <ele>1682</ele>
        <time>2021-12-14T19:17:16Z</time>
      </trkpt>
      <trkpt lat="45.3373" lon="5.71226">
        <ele>1681</ele>
        <time>2021-12-14T19:17:20Z</time>
      </trkpt>
      <trkpt lat="45.3373" lon="5.71229">
        <ele>1681</ele>
        <time>2021-12-14T19:17:22Z</time>
      </trkpt>
      <trkpt lat="45.3373" lon="5.7122">
        <ele>1682</ele>
        <time>2021-12-14T19:17:27Z</time>
      </trkpt>
      <trkpt lat="45.33732" lon="5.71225">
        <ele>1682</ele>
        <time>2021-12-14T19:17:30Z</time>
      </trkpt>
      <trkpt lat="45.3373" lon="5.71226">
        <ele>1681</ele>
        <time>2021-12-14T19:17:32Z</time>
      </trkpt>
      <trkpt lat="45.3373" lon="5.71223">
        <ele>1682</ele>
        <time>2021-12-14T19:17:33Z</time>
      </trkpt>
      <trkpt lat="45.33741" lon="5.71233">
        <ele>1682</ele>
        <time>2021-12-14T19:17:44Z</time>
      </trkpt>
      <trkpt lat="45.33774" lon="5.71243">
        <ele>1678</ele>
        <time>2021-12-14T19:18:11Z</time>
      </trkpt>
      <trkpt lat="45.33819" lon="5.71242">
        <ele>1673</ele>
        <time>2021-12-14T19:18:47Z</time>
      </trkpt>
      <trkpt lat="45.33856" lon="5.71245">
        <ele>1665</ele>
        <time>2021-12-14T19:19:17Z</time>
      </trkpt>
      <trkpt lat="45.33915" lon="5.71302">
        <ele>1646</ele>
        <time>2021-12-14T19:20:14Z</time>
      </trkpt>
      <trkpt lat="45.33928" lon="5.71318">
        <ele>1643</ele>
        <time>2021-12-14T19:20:27Z</time>
      </trkpt>
      <trkpt lat="45.33958" lon="5.71341">
        <ele>1639</ele>
        <time>2021-12-14T19:20:55Z</time>
      </trkpt>
      <trkpt lat="45.33989" lon="5.7137">
        <ele>1637</ele>
        <time>2021-12-14T19:21:24Z</time>
      </trkpt>
      <trkpt lat="45.34067" lon="5.71411">
        <ele>1625</ele>
        <time>2021-12-14T19:22:31Z</time>
      </trkpt>
      <trkpt lat="45.34135" lon="5.71487">
        <ele>1618</ele>
        <time>2021-12-14T19:23:40Z</time>
      </trkpt>
      <trkpt lat="45.34146" lon="5.71489">
        <ele>1616</ele>
        <time>2021-12-14T19:23:49Z</time>
      </trkpt>
      <trkpt lat="45.34176" lon="5.71467">
        <ele>1607</ele>
        <time>2021-12-14T19:24:16Z</time>
      </trkpt>
      <trkpt lat="45.34197" lon="5.71488">
        <ele>1601</ele>
        <time>2021-12-14T19:24:37Z</time>
      </trkpt>
      <trkpt lat="45.3421" lon="5.71513">
        <ele>1597</ele>
        <time>2021-12-14T19:24:54Z</time>
      </trkpt>
      <trkpt lat="45.34228" lon="5.7154">
        <ele>1592</ele>
        <time>2021-12-14T19:25:15Z</time>
      </trkpt>
      <trkpt lat="45.34244" lon="5.71574">
        <ele>1587</ele>
        <time>2021-12-14T19:25:38Z</time>
      </trkpt>
      <trkpt lat="45.34253" lon="5.71582">
        <ele>1584</ele>
        <time>2021-12-14T19:25:47Z</time>
      </trkpt>
      <trkpt lat="45.34269" lon="5.71577">
        <ele>1578</ele>
        <time>2021-12-14T19:26:00Z</time>
      </trkpt>
      <trkpt lat="45.34281" lon="5.71557">
        <ele>1573</ele>
        <time>2021-12-14T19:26:15Z</time>
      </trkpt>
      <trkpt lat="45.34295" lon="5.71558">
        <ele>1568</ele>
        <time>2021-12-14T19:26:26Z</time>
      </trkpt>
      <trkpt lat="45.34299" lon="5.71561">
        <ele>1567</ele>
        <time>2021-12-14T19:26:29Z</time>
      </trkpt>
      <trkpt lat="45.34339" lon="5.716">
        <ele>1554</ele>
        <time>2021-12-14T19:27:08Z</time>
      </trkpt>
      <trkpt lat="45.34349" lon="5.71617">
        <ele>1551</ele>
        <time>2021-12-14T19:27:21Z</time>
      </trkpt>
      <trkpt lat="45.34355" lon="5.71637">
        <ele>1550</ele>
        <time>2021-12-14T19:27:33Z</time>
      </trkpt>
      <trkpt lat="45.34363" lon="5.71682">
        <ele>1549</ele>
        <time>2021-12-14T19:27:59Z</time>
      </trkpt>
      <trkpt lat="45.34377" lon="5.7171">
        <ele>1548</ele>
        <time>2021-12-14T19:28:18Z</time>
      </trkpt>
      <trkpt lat="45.34445" lon="5.71727">
        <ele>1530</ele>
        <time>2021-12-14T19:29:14Z</time>
      </trkpt>
      <trkpt lat="45.34477" lon="5.71742">
        <ele>1523</ele>
        <time>2021-12-14T19:29:41Z</time>
      </trkpt>
      <trkpt lat="45.34495" lon="5.71746">
        <ele>1518</ele>
        <time>2021-12-14T19:29:55Z</time>
      </trkpt>
      <trkpt lat="45.34507" lon="5.71735">
        <ele>1515</ele>
        <time>2021-12-14T19:30:07Z</time>
      </trkpt>
      <trkpt lat="45.34519" lon="5.71729">
        <ele>1513</ele>
        <time>2021-12-14T19:30:17Z</time>
      </trkpt>
      <trkpt lat="45.34548" lon="5.71731">
        <ele>1509</ele>
        <time>2021-12-14T19:30:40Z</time>
      </trkpt>
      <trkpt lat="45.3465" lon="5.71783">
        <ele>1499</ele>
        <time>2021-12-14T19:32:07Z</time>
      </trkpt>
      <trkpt lat="45.34753" lon="5.71817">
        <ele>1496</ele>
        <time>2021-12-14T19:33:32Z</time>
      </trkpt>
      <trkpt lat="45.34771" lon="5.71836">
        <ele>1495</ele>
        <time>2021-12-14T19:33:49Z</time>
      </trkpt>
      <trkpt lat="45.34775" lon="5.71829">
        <ele>1494</ele>
        <time>2021-12-14T19:33:55Z</time>
      </trkpt>
      <trkpt lat="45.34791" lon="5.71824">
        <ele>1494</ele>
        <time>2021-12-14T19:34:08Z</time>
      </trkpt>
      <trkpt lat="45.34797" lon="5.71816">
        <ele>1493</ele>
        <time>2021-12-14T19:34:14Z</time>
      </trkpt>
      <trkpt lat="45.34825" lon="5.71811">
        <ele>1492</ele>
        <time>2021-12-14T19:34:37Z</time>
      </trkpt>
      <trkpt lat="45.34874" lon="5.71835">
        <ele>1480</ele>
        <time>2021-12-14T19:35:18Z</time>
      </trkpt>
      <trkpt lat="45.34886" lon="5.71838">
        <ele>1477</ele>
        <time>2021-12-14T19:35:28Z</time>
      </trkpt>
      <trkpt lat="45.34902" lon="5.7186">
        <ele>1481</ele>
        <time>2021-12-14T19:35:46Z</time>
      </trkpt>
      <trkpt lat="45.34932" lon="5.71889">
        <ele>1495</ele>
        <time>2021-12-14T19:36:15Z</time>
      </trkpt>
      <trkpt lat="45.34937" lon="5.71886">
        <ele>1494</ele>
        <time>2021-12-14T19:36:19Z</time>
      </trkpt>
      <trkpt lat="45.34945" lon="5.71875">
        <ele>1489</ele>
        <time>2021-12-14T19:36:28Z</time>
      </trkpt>
      <trkpt lat="45.34959" lon="5.71869">
        <ele>1487</ele>
        <time>2021-12-14T19:36:40Z</time>
      </trkpt>
      <trkpt lat="45.34966" lon="5.71858">
        <ele>1481</ele>
        <time>2021-12-14T19:36:48Z</time>
      </trkpt>
      <trkpt lat="45.34968" lon="5.71859">
        <ele>1482</ele>
        <time>2021-12-14T19:36:50Z</time>
      </trkpt>
      <trkpt lat="45.34974" lon="5.71855">
        <ele>1479</ele>
        <time>2021-12-14T19:36:55Z</time>
      </trkpt>
      <trkpt lat="45.34987" lon="5.71841">
        <ele>1469</ele>
        <time>2021-12-14T19:37:08Z</time>
      </trkpt>
      <trkpt lat="45.34996" lon="5.71837">
        <ele>1466</ele>
        <time>2021-12-14T19:37:16Z</time>
      </trkpt>
      <trkpt lat="45.35016" lon="5.71832">
        <ele>1462</ele>
        <time>2021-12-14T19:37:32Z</time>
      </trkpt>
      <trkpt lat="45.35025" lon="5.71849">
        <ele>1477</ele>
        <time>2021-12-14T19:37:44Z</time>
      </trkpt>
      <trkpt lat="45.35041" lon="5.71832">
        <ele>1463</ele>
        <time>2021-12-14T19:38:00Z</time>
      </trkpt>
      <trkpt lat="45.35047" lon="5.71814">
        <ele>1448</ele>
        <time>2021-12-14T19:38:11Z</time>
      </trkpt>
      <trkpt lat="45.3506" lon="5.71801">
        <ele>1436</ele>
        <time>2021-12-14T19:38:24Z</time>
      </trkpt>
      <trkpt lat="45.35081" lon="5.71797">
        <ele>1432</ele>
        <time>2021-12-14T19:38:41Z</time>
      </trkpt>
      <trkpt lat="45.35084" lon="5.71787">
        <ele>1423</ele>
        <time>2021-12-14T19:38:47Z</time>
      </trkpt>
      <trkpt lat="45.35092" lon="5.71793">
        <ele>1427</ele>
        <time>2021-12-14T19:38:54Z</time>
      </trkpt>
      <trkpt lat="45.35087" lon="5.71789">
        <ele>1424</ele>
        <time>2021-12-14T19:38:59Z</time>
      </trkpt>
      <trkpt lat="45.35088" lon="5.71794">
        <ele>1429</ele>
        <time>2021-12-14T19:39:02Z</time>
      </trkpt>
      <trkpt lat="45.35083" lon="5.71788">
        <ele>1424</ele>
        <time>2021-12-14T19:39:07Z</time>
      </trkpt>
      <trkpt lat="45.35084" lon="5.71783">
        <ele>1419</ele>
        <time>2021-12-14T19:39:10Z</time>
      </trkpt>
      <trkpt lat="45.35088" lon="5.71781">
        <ele>1417</ele>
        <time>2021-12-14T19:39:13Z</time>
      </trkpt>
      <trkpt lat="45.3509" lon="5.71795">
        <ele>1429</ele>
        <time>2021-12-14T19:39:21Z</time>
      </trkpt>
      <trkpt lat="45.35086" lon="5.71804">
        <ele>1438</ele>
        <time>2021-12-14T19:39:27Z</time>
      </trkpt>
      <trkpt lat="45.35087" lon="5.71815">
        <ele>1448</ele>
        <time>2021-12-14T19:39:34Z</time>
      </trkpt>
      <trkpt lat="45.3508" lon="5.71799">
        <ele>1434</ele>
        <time>2021-12-14T19:39:44Z</time>
      </trkpt>
      <trkpt lat="45.35077" lon="5.71783">
        <ele>1419</ele>
        <time>2021-12-14T19:39:54Z</time>
      </trkpt>
      <trkpt lat="45.35086" lon="5.71788">
        <ele>1423</ele>
        <time>2021-12-14T19:40:01Z</time>
      </trkpt>
      <trkpt lat="45.35085" lon="5.71791">
        <ele>1426</ele>
        <time>2021-12-14T19:40:03Z</time>
      </trkpt>
      <trkpt lat="45.35098" lon="5.71778">
        <ele>1413</ele>
        <time>2021-12-14T19:40:16Z</time>
      </trkpt>
      <trkpt lat="45.35109" lon="5.71784">
        <ele>1418</ele>
        <time>2021-12-14T19:40:25Z</time>
      </trkpt>
      <trkpt lat="45.35155" lon="5.71787">
        <ele>1416</ele>
        <time>2021-12-14T19:41:02Z</time>
      </trkpt>
      <trkpt lat="45.35183" lon="5.71779">
        <ele>1411</ele>
        <time>2021-12-14T19:41:25Z</time>
      </trkpt>
      <trkpt lat="45.35198" lon="5.71781">
        <ele>1413</ele>
        <time>2021-12-14T19:41:37Z</time>
      </trkpt>
      <trkpt lat="45.35215" lon="5.71776">
        <ele>1411</ele>
        <time>2021-12-14T19:41:51Z</time>
      </trkpt>
      <trkpt lat="45.35222" lon="5.71776">
        <ele>1412</ele>
        <time>2021-12-14T19:41:57Z</time>
      </trkpt>
      <trkpt lat="45.35231" lon="5.71781">
        <ele>1415</ele>
        <time>2021-12-14T19:42:04Z</time>
      </trkpt>
      <trkpt lat="45.3524" lon="5.71777">
        <ele>1413</ele>
        <time>2021-12-14T19:42:12Z</time>
      </trkpt>
      <trkpt lat="45.35244" lon="5.71761">
        <ele>1405</ele>
        <time>2021-12-14T19:42:21Z</time>
      </trkpt>
      <trkpt lat="45.3525" lon="5.71764">
        <ele>1407</ele>
        <time>2021-12-14T19:42:27Z</time>
      </trkpt>
      <trkpt lat="45.353" lon="5.71759">
        <ele>1401</ele>
        <time>2021-12-14T19:43:07Z</time>
      </trkpt>
      <trkpt lat="45.35309" lon="5.7176">
        <ele>1401</ele>
        <time>2021-12-14T19:43:14Z</time>
      </trkpt>
      <trkpt lat="45.35329" lon="5.71771">
        <ele>1405</ele>
        <time>2021-12-14T19:43:31Z</time>
      </trkpt>
      <trkpt lat="45.35348" lon="5.71797">
        <ele>1411</ele>
        <time>2021-12-14T19:43:52Z</time>
      </trkpt>
      <trkpt lat="45.35368" lon="5.71815">
        <ele>1414</ele>
        <time>2021-12-14T19:44:11Z</time>
      </trkpt>
      <trkpt lat="45.354" lon="5.7182">
        <ele>1408</ele>
        <time>2021-12-14T19:44:37Z</time>
      </trkpt>
      <trkpt lat="45.35446" lon="5.71847">
        <ele>1407</ele>
        <time>2021-12-14T19:45:17Z</time>
      </trkpt>
      <trkpt lat="45.35452" lon="5.71868">
        <ele>1414</ele>
        <time>2021-12-14T19:45:30Z</time>
      </trkpt>
      <trkpt lat="45.35467" lon="5.71895">
        <ele>1419</ele>
        <time>2021-12-14T19:45:49Z</time>
      </trkpt>
      <trkpt lat="45.3549" lon="5.71914">
        <ele>1414</ele>
        <time>2021-12-14T19:46:10Z</time>
      </trkpt>
      <trkpt lat="45.35494" lon="5.71911">
        <ele>1411</ele>
        <time>2021-12-14T19:46:14Z</time>
      </trkpt>
      <trkpt lat="45.35533" lon="5.71919">
        <ele>1403</ele>
        <time>2021-12-14T19:46:45Z</time>
      </trkpt>
      <trkpt lat="45.35545" lon="5.71912">
        <ele>1397</ele>
        <time>2021-12-14T19:46:56Z</time>
      </trkpt>
      <trkpt lat="45.35565" lon="5.7193">
        <ele>1400</ele>
        <time>2021-12-14T19:47:15Z</time>
      </trkpt>
      <trkpt lat="45.35577" lon="5.71949">
        <ele>1405</ele>
        <time>2021-12-14T19:47:29Z</time>
      </trkpt>
      <trkpt lat="45.35661" lon="5.72002">
        <ele>1402</ele>
        <time>2021-12-14T19:48:43Z</time>
      </trkpt>
      <trkpt lat="45.35667" lon="5.71999">
        <ele>1399</ele>
        <time>2021-12-14T19:48:48Z</time>
      </trkpt>
      <trkpt lat="45.3567" lon="5.71994">
        <ele>1396</ele>
        <time>2021-12-14T19:48:51Z</time>
      </trkpt>
      <trkpt lat="45.35669" lon="5.71988">
        <ele>1394</ele>
        <time>2021-12-14T19:48:55Z</time>
      </trkpt>
      <trkpt lat="45.35678" lon="5.7199">
        <ele>1392</ele>
        <time>2021-12-14T19:49:02Z</time>
      </trkpt>
      <trkpt lat="45.35709" lon="5.72007">
        <ele>1388</ele>
        <time>2021-12-14T19:49:29Z</time>
      </trkpt>
      <trkpt lat="45.35714" lon="5.72012">
        <ele>1388</ele>
        <time>2021-12-14T19:49:34Z</time>
      </trkpt>
      <trkpt lat="45.35756" lon="5.72031">
        <ele>1380</ele>
        <time>2021-12-14T19:50:09Z</time>
      </trkpt>
      <trkpt lat="45.35766" lon="5.72047">
        <ele>1382</ele>
        <time>2021-12-14T19:50:21Z</time>
      </trkpt>
      <trkpt lat="45.3577" lon="5.72058">
        <ele>1384</ele>
        <time>2021-12-14T19:50:28Z</time>
      </trkpt>
      <trkpt lat="45.35788" lon="5.72083">
        <ele>1384</ele>
        <time>2021-12-14T19:50:48Z</time>
      </trkpt>
      <trkpt lat="45.35804" lon="5.72096">
        <ele>1382</ele>
        <time>2021-12-14T19:51:03Z</time>
      </trkpt>
      <trkpt lat="45.35816" lon="5.72101">
        <ele>1378</ele>
        <time>2021-12-14T19:51:13Z</time>
      </trkpt>
      <trkpt lat="45.35827" lon="5.72102">
        <ele>1374</ele>
        <time>2021-12-14T19:51:22Z</time>
      </trkpt>
      <trkpt lat="45.35845" lon="5.72111">
        <ele>1370</ele>
        <time>2021-12-14T19:51:37Z</time>
      </trkpt>
      <trkpt lat="45.35863" lon="5.72129">
        <ele>1369</ele>
        <time>2021-12-14T19:51:55Z</time>
      </trkpt>
      <trkpt lat="45.3588" lon="5.7214">
        <ele>1364</ele>
        <time>2021-12-14T19:52:10Z</time>
      </trkpt>
      <trkpt lat="45.35897" lon="5.72187">
        <ele>1372</ele>
        <time>2021-12-14T19:52:39Z</time>
      </trkpt>
      <trkpt lat="45.35909" lon="5.72202">
        <ele>1371</ele>
        <time>2021-12-14T19:52:52Z</time>
      </trkpt>
      <trkpt lat="45.35946" lon="5.72217">
        <ele>1359</ele>
        <time>2021-12-14T19:53:23Z</time>
      </trkpt>
      <trkpt lat="45.35957" lon="5.72225">
        <ele>1357</ele>
        <time>2021-12-14T19:53:33Z</time>
      </trkpt>
      <trkpt lat="45.3598" lon="5.72225">
        <ele>1346</ele>
        <time>2021-12-14T19:53:51Z</time>
      </trkpt>
      <trkpt lat="45.35994" lon="5.7223">
        <ele>1341</ele>
        <time>2021-12-14T19:54:03Z</time>
      </trkpt>
      <trkpt lat="45.36012" lon="5.72245">
        <ele>1340</ele>
        <time>2021-12-14T19:54:19Z</time>
      </trkpt>
      <trkpt lat="45.36023" lon="5.72264">
        <ele>1342</ele>
        <time>2021-12-14T19:54:33Z</time>
      </trkpt>
      <trkpt lat="45.36052" lon="5.7229">
        <ele>1339</ele>
        <time>2021-12-14T19:55:01Z</time>
      </trkpt>
      <trkpt lat="45.36056" lon="5.72298">
        <ele>1340</ele>
        <time>2021-12-14T19:55:06Z</time>
      </trkpt>
      <trkpt lat="45.36064" lon="5.72298">
        <ele>1337</ele>
        <time>2021-12-14T19:55:13Z</time>
      </trkpt>
      <trkpt lat="45.36072" lon="5.72305">
        <ele>1336</ele>
        <time>2021-12-14T19:55:20Z</time>
      </trkpt>
      <trkpt lat="45.36108" lon="5.72348">
        <ele>1336</ele>
        <time>2021-12-14T19:55:58Z</time>
      </trkpt>
      <trkpt lat="45.3611" lon="5.72353">
        <ele>1336</ele>
        <time>2021-12-14T19:56:01Z</time>
      </trkpt>
      <trkpt lat="45.36172" lon="5.72403">
        <ele>1327</ele>
        <time>2021-12-14T19:56:58Z</time>
      </trkpt>
      <trkpt lat="45.36193" lon="5.72424">
        <ele>1327</ele>
        <time>2021-12-14T19:57:19Z</time>
      </trkpt>
      <trkpt lat="45.36203" lon="5.72431">
        <ele>1326</ele>
        <time>2021-12-14T19:57:28Z</time>
      </trkpt>
      <trkpt lat="45.36215" lon="5.72447">
        <ele>1328</ele>
        <time>2021-12-14T19:57:41Z</time>
      </trkpt>
      <trkpt lat="45.36301" lon="5.7252">
        <ele>1329</ele>
        <time>2021-12-14T19:59:01Z</time>
      </trkpt>
      <trkpt lat="45.36411" lon="5.72593">
        <ele>1327</ele>
        <time>2021-12-14T20:00:38Z</time>
      </trkpt>
      <trkpt lat="45.36459" lon="5.72643">
        <ele>1325</ele>
        <time>2021-12-14T20:01:26Z</time>
      </trkpt>
      <trkpt lat="45.36486" lon="5.72691">
        <ele>1328</ele>
        <time>2021-12-14T20:02:00Z</time>
      </trkpt>
      <trkpt lat="45.36501" lon="5.72726">
        <ele>1329</ele>
        <time>2021-12-14T20:02:23Z</time>
      </trkpt>
      <trkpt lat="45.36513" lon="5.72802">
        <ele>1327</ele>
        <time>2021-12-14T20:03:07Z</time>
      </trkpt>
      <trkpt lat="45.36518" lon="5.72821">
        <ele>1325</ele>
        <time>2021-12-14T20:03:19Z</time>
      </trkpt>
      <trkpt lat="45.36528" lon="5.72848">
        <ele>1321</ele>
        <time>2021-12-14T20:03:36Z</time>
      </trkpt>
      <trkpt lat="45.36552" lon="5.72893">
        <ele>1312</ele>
        <time>2021-12-14T20:04:08Z</time>
      </trkpt>
      <trkpt lat="45.36575" lon="5.72895">
        <ele>1310</ele>
        <time>2021-12-14T20:04:26Z</time>
      </trkpt>
      <trkpt lat="45.36586" lon="5.72904">
        <ele>1308</ele>
        <time>2021-12-14T20:04:36Z</time>
      </trkpt>
      <trkpt lat="45.36605" lon="5.72935">
        <ele>1303</ele>
        <time>2021-12-14T20:04:59Z</time>
      </trkpt>
      <trkpt lat="45.36626" lon="5.72986">
        <ele>1297</ele>
        <time>2021-12-14T20:05:33Z</time>
      </trkpt>
      <trkpt lat="45.36638" lon="5.72996">
        <ele>1297</ele>
        <time>2021-12-14T20:05:44Z</time>
      </trkpt>
      <trkpt lat="45.36678" lon="5.73017">
        <ele>1293</ele>
        <time>2021-12-14T20:06:18Z</time>
      </trkpt>
      <trkpt lat="45.36704" lon="5.73048">
        <ele>1285</ele>
        <time>2021-12-14T20:06:45Z</time>
      </trkpt>
      <trkpt lat="45.36728" lon="5.73084">
        <ele>1280</ele>
        <time>2021-12-14T20:07:13Z</time>
      </trkpt>
      <trkpt lat="45.36746" lon="5.73104">
        <ele>1277</ele>
        <time>2021-12-14T20:07:31Z</time>
      </trkpt>
      <trkpt lat="45.36752" lon="5.73117">
        <ele>1274</ele>
        <time>2021-12-14T20:07:40Z</time>
      </trkpt>
      <trkpt lat="45.36753" lon="5.73155">
        <ele>1272</ele>
        <time>2021-12-14T20:08:01Z</time>
      </trkpt>
      <trkpt lat="45.36764" lon="5.73204">
        <ele>1262</ele>
        <time>2021-12-14T20:08:30Z</time>
      </trkpt>
      <trkpt lat="45.36766" lon="5.73234">
        <ele>1259</ele>
        <time>2021-12-14T20:08:47Z</time>
      </trkpt>
      <trkpt lat="45.36778" lon="5.73278">
        <ele>1253</ele>
        <time>2021-12-14T20:09:14Z</time>
      </trkpt>
      <trkpt lat="45.36803" lon="5.73317">
        <ele>1249</ele>
        <time>2021-12-14T20:09:43Z</time>
      </trkpt>
      <trkpt lat="45.36814" lon="5.73339">
        <ele>1247</ele>
        <time>2021-12-14T20:09:59Z</time>
      </trkpt>
      <trkpt lat="45.36833" lon="5.73408">
        <ele>1236</ele>
        <time>2021-12-14T20:10:40Z</time>
      </trkpt>
      <trkpt lat="45.36851" lon="5.73426">
        <ele>1230</ele>
        <time>2021-12-14T20:10:58Z</time>
      </trkpt>
      <trkpt lat="45.36867" lon="5.73476">
        <ele>1223</ele>
        <time>2021-12-14T20:11:29Z</time>
      </trkpt>
      <trkpt lat="45.36876" lon="5.73517">
        <ele>1219</ele>
        <time>2021-12-14T20:11:53Z</time>
      </trkpt>
      <trkpt lat="45.36925" lon="5.73607">
        <ele>1212</ele>
        <time>2021-12-14T20:12:57Z</time>
      </trkpt>
      <trkpt lat="45.36932" lon="5.73615">
        <ele>1208</ele>
        <time>2021-12-14T20:13:04Z</time>
      </trkpt>
      <trkpt lat="45.36975" lon="5.737">
        <ele>1194</ele>
        <time>2021-12-14T20:14:03Z</time>
      </trkpt>
      <trkpt lat="45.36991" lon="5.73716">
        <ele>1192</ele>
        <time>2021-12-14T20:14:19Z</time>
      </trkpt>
      <trkpt lat="45.36998" lon="5.73716">
        <ele>1191</ele>
        <time>2021-12-14T20:14:24Z</time>
      </trkpt>
      <trkpt lat="45.37001" lon="5.73719">
        <ele>1190</ele>
        <time>2021-12-14T20:14:27Z</time>
      </trkpt>
      <trkpt lat="45.36994" lon="5.73711">
        <ele>1191</ele>
        <time>2021-12-14T20:14:35Z</time>
      </trkpt>
      <trkpt lat="45.36995" lon="5.73718">
        <ele>1192</ele>
        <time>2021-12-14T20:14:39Z</time>
      </trkpt>
      <trkpt lat="45.36999" lon="5.73716">
        <ele>1191</ele>
        <time>2021-12-14T20:14:42Z</time>
      </trkpt>
      <trkpt lat="45.36991" lon="5.73715">
        <ele>1192</ele>
        <time>2021-12-14T20:14:48Z</time>
      </trkpt>
      <trkpt lat="45.36996" lon="5.73713">
        <ele>1191</ele>
        <time>2021-12-14T20:14:53Z</time>
      </trkpt>
      <trkpt lat="45.36993" lon="5.73711">
        <ele>1191</ele>
        <time>2021-12-14T20:14:55Z</time>
      </trkpt>
      <trkpt lat="45.36992" lon="5.73715">
        <ele>1192</ele>
        <time>2021-12-14T20:14:58Z</time>
      </trkpt>
      <trkpt lat="45.36994" lon="5.73716">
        <ele>1192</ele>
        <time>2021-12-14T20:14:59Z</time>
      </trkpt>
      <trkpt lat="45.36995" lon="5.73712">
        <ele>1191</ele>
        <time>2021-12-14T20:15:02Z</time>
      </trkpt>
      <trkpt lat="45.36991" lon="5.73711">
        <ele>1192</ele>
        <time>2021-12-14T20:15:05Z</time>
      </trkpt>
      <trkpt lat="45.36994" lon="5.7371">
        <ele>1191</ele>
        <time>2021-12-14T20:15:07Z</time>
      </trkpt>
      <trkpt lat="45.36995" lon="5.73768">
        <ele>1194</ele>
        <time>2021-12-14T20:15:40Z</time>
      </trkpt>
      <trkpt lat="45.37002" lon="5.73804">
        <ele>1190</ele>
        <time>2021-12-14T20:16:01Z</time>
      </trkpt>
      <trkpt lat="45.37002" lon="5.73823">
        <ele>1189</ele>
        <time>2021-12-14T20:16:12Z</time>
      </trkpt>
      <trkpt lat="45.37" lon="5.73824">
        <ele>1191</ele>
        <time>2021-12-14T20:16:13Z</time>
      </trkpt>
      <trkpt lat="45.36977" lon="5.73802">
        <ele>1192</ele>
        <time>2021-12-14T20:16:36Z</time>
      </trkpt>
      <trkpt lat="45.36931" lon="5.73781">
        <ele>1195</ele>
        <time>2021-12-14T20:17:14Z</time>
      </trkpt>
      <trkpt lat="45.36909" lon="5.73768">
        <ele>1195</ele>
        <time>2021-12-14T20:17:33Z</time>
      </trkpt>
      <trkpt lat="45.36848" lon="5.73723">
        <ele>1187</ele>
        <time>2021-12-14T20:18:28Z</time>
      </trkpt>
      <trkpt lat="45.36818" lon="5.73693">
        <ele>1184</ele>
        <time>2021-12-14T20:18:58Z</time>
      </trkpt>
      <trkpt lat="45.36775" lon="5.73668">
        <ele>1175</ele>
        <time>2021-12-14T20:19:35Z</time>
      </trkpt>
      <trkpt lat="45.36698" lon="5.73636">
        <ele>1159</ele>
        <time>2021-12-14T20:20:39Z</time>
      </trkpt>
      <trkpt lat="45.36663" lon="5.73618">
        <ele>1153</ele>
        <time>2021-12-14T20:21:09Z</time>
      </trkpt>
      <trkpt lat="45.3665" lon="5.73604">
        <ele>1152</ele>
        <time>2021-12-14T20:21:22Z</time>
      </trkpt>
      <trkpt lat="45.3663" lon="5.73597">
        <ele>1148</ele>
        <time>2021-12-14T20:21:39Z</time>
      </trkpt>
      <trkpt lat="45.36615" lon="5.73585">
        <ele>1147</ele>
        <time>2021-12-14T20:21:52Z</time>
      </trkpt>
      <trkpt lat="45.36532" lon="5.73538">
        <ele>1133</ele>
        <time>2021-12-14T20:23:04Z</time>
      </trkpt>
      <trkpt lat="45.36503" lon="5.73511">
        <ele>1131</ele>
        <time>2021-12-14T20:23:32Z</time>
      </trkpt>
      <trkpt lat="45.36462" lon="5.73461">
        <ele>1126</ele>
        <time>2021-12-14T20:24:15Z</time>
      </trkpt>
      <trkpt lat="45.36406" lon="5.73386">
        <ele>1125</ele>
        <time>2021-12-14T20:25:16Z</time>
      </trkpt>
      <trkpt lat="45.36392" lon="5.73375">
        <ele>1124</ele>
        <time>2021-12-14T20:25:29Z</time>
      </trkpt>
      <trkpt lat="45.36383" lon="5.7337">
        <ele>1122</ele>
        <time>2021-12-14T20:25:37Z</time>
      </trkpt>
      <trkpt lat="45.36359" lon="5.73376">
        <ele>1109</ele>
        <time>2021-12-14T20:25:56Z</time>
      </trkpt>
      <trkpt lat="45.36329" lon="5.73393">
        <ele>1092</ele>
        <time>2021-12-14T20:26:22Z</time>
      </trkpt>
      <trkpt lat="45.3631" lon="5.73407">
        <ele>1087</ele>
        <time>2021-12-14T20:26:39Z</time>
      </trkpt>
      <trkpt lat="45.3631" lon="5.73409">
        <ele>1086</ele>
        <time>2021-12-14T20:26:41Z</time>
      </trkpt>
      <trkpt lat="45.36328" lon="5.73403">
        <ele>1089</ele>
        <time>2021-12-14T20:26:55Z</time>
      </trkpt>
      <trkpt lat="45.36331" lon="5.73409">
        <ele>1087</ele>
        <time>2021-12-14T20:26:59Z</time>
      </trkpt>
      <trkpt lat="45.36329" lon="5.73425">
        <ele>1081</ele>
        <time>2021-12-14T20:27:09Z</time>
      </trkpt>
      <trkpt lat="45.36316" lon="5.73445">
        <ele>1075</ele>
        <time>2021-12-14T20:27:24Z</time>
      </trkpt>
      <trkpt lat="45.36309" lon="5.73452">
        <ele>1072</ele>
        <time>2021-12-14T20:27:31Z</time>
      </trkpt>
      <trkpt lat="45.36275" lon="5.73473">
        <ele>1064</ele>
        <time>2021-12-14T20:28:00Z</time>
      </trkpt>
      <trkpt lat="45.36255" lon="5.73489">
        <ele>1059</ele>
        <time>2021-12-14T20:28:19Z</time>
      </trkpt>
      <trkpt lat="45.36199" lon="5.73558">
        <ele>1050</ele>
        <time>2021-12-14T20:29:18Z</time>
      </trkpt>
      <trkpt lat="45.36182" lon="5.73593">
        <ele>1042</ele>
        <time>2021-12-14T20:29:42Z</time>
      </trkpt>
      <trkpt lat="45.36158" lon="5.73625">
        <ele>1034</ele>
        <time>2021-12-14T20:30:08Z</time>
      </trkpt>
      <trkpt lat="45.36142" lon="5.73637">
        <ele>1030</ele>
        <time>2021-12-14T20:30:23Z</time>
      </trkpt>
      <trkpt lat="45.36122" lon="5.73647">
        <ele>1026</ele>
        <time>2021-12-14T20:30:40Z</time>
      </trkpt>
      <trkpt lat="45.36107" lon="5.73666">
        <ele>1019</ele>
        <time>2021-12-14T20:30:56Z</time>
      </trkpt>
      <trkpt lat="45.36104" lon="5.73693">
        <ele>1012</ele>
        <time>2021-12-14T20:31:11Z</time>
      </trkpt>
      <trkpt lat="45.36115" lon="5.73692">
        <ele>1012</ele>
        <time>2021-12-14T20:31:20Z</time>
      </trkpt>
      <trkpt lat="45.3613" lon="5.73682">
        <ele>1015</ele>
        <time>2021-12-14T20:31:33Z</time>
      </trkpt>
      <trkpt lat="45.36134" lon="5.73682">
        <ele>1015</ele>
        <time>2021-12-14T20:31:37Z</time>
      </trkpt>
      <trkpt lat="45.36139" lon="5.73685">
        <ele>1015</ele>
        <time>2021-12-14T20:31:41Z</time>
      </trkpt>
      <trkpt lat="45.36147" lon="5.73697">
        <ele>1011</ele>
        <time>2021-12-14T20:31:50Z</time>
      </trkpt>
      <trkpt lat="45.36145" lon="5.73708">
        <ele>1008</ele>
        <time>2021-12-14T20:31:57Z</time>
      </trkpt>
      <trkpt lat="45.36099" lon="5.73744">
        <ele>998</ele>
        <time>2021-12-14T20:32:39Z</time>
      </trkpt>
      <trkpt lat="45.3606" lon="5.73762">
        <ele>992</ele>
        <time>2021-12-14T20:33:12Z</time>
      </trkpt>
      <trkpt lat="45.36038" lon="5.73777">
        <ele>986</ele>
        <time>2021-12-14T20:33:31Z</time>
      </trkpt>
      <trkpt lat="45.36022" lon="5.73783">
        <ele>984</ele>
        <time>2021-12-14T20:33:44Z</time>
      </trkpt>
      <trkpt lat="45.35991" lon="5.73784">
        <ele>981</ele>
        <time>2021-12-14T20:34:09Z</time>
      </trkpt>
      <trkpt lat="45.35971" lon="5.73769">
        <ele>983</ele>
        <time>2021-12-14T20:34:27Z</time>
      </trkpt>
      <trkpt lat="45.3596" lon="5.73771">
        <ele>982</ele>
        <time>2021-12-14T20:34:36Z</time>
      </trkpt>
      <trkpt lat="45.35932" lon="5.73789">
        <ele>972</ele>
        <time>2021-12-14T20:35:01Z</time>
      </trkpt>
      <trkpt lat="45.35928" lon="5.73795">
        <ele>970</ele>
        <time>2021-12-14T20:35:05Z</time>
      </trkpt>
      <trkpt lat="45.35905" lon="5.73808">
        <ele>965</ele>
        <time>2021-12-14T20:35:25Z</time>
      </trkpt>
      <trkpt lat="45.35857" lon="5.73845">
        <ele>956</ele>
        <time>2021-12-14T20:36:09Z</time>
      </trkpt>
      <trkpt lat="45.35847" lon="5.73868">
        <ele>950</ele>
        <time>2021-12-14T20:36:24Z</time>
      </trkpt>
      <trkpt lat="45.35881" lon="5.73847">
        <ele>954</ele>
        <time>2021-12-14T20:36:54Z</time>
      </trkpt>
      <trkpt lat="45.35902" lon="5.73854">
        <ele>951</ele>
        <time>2021-12-14T20:37:11Z</time>
      </trkpt>
      <trkpt lat="45.35906" lon="5.73858">
        <ele>950</ele>
        <time>2021-12-14T20:37:15Z</time>
      </trkpt>
      <trkpt lat="45.35911" lon="5.73882">
        <ele>945</ele>
        <time>2021-12-14T20:37:29Z</time>
      </trkpt>
      <trkpt lat="45.35904" lon="5.73896">
        <ele>942</ele>
        <time>2021-12-14T20:37:39Z</time>
      </trkpt>
      <trkpt lat="45.35893" lon="5.73907">
        <ele>940</ele>
        <time>2021-12-14T20:37:49Z</time>
      </trkpt>
      <trkpt lat="45.35886" lon="5.73919">
        <ele>937</ele>
        <time>2021-12-14T20:37:58Z</time>
      </trkpt>
      <trkpt lat="45.35848" lon="5.73948">
        <ele>931</ele>
        <time>2021-12-14T20:38:33Z</time>
      </trkpt>
      <trkpt lat="45.35803" lon="5.73975">
        <ele>928</ele>
        <time>2021-12-14T20:39:12Z</time>
      </trkpt>
      <trkpt lat="45.35768" lon="5.74022">
        <ele>922</ele>
        <time>2021-12-14T20:39:50Z</time>
      </trkpt>
      <trkpt lat="45.35738" lon="5.74075">
        <ele>916</ele>
        <time>2021-12-14T20:40:29Z</time>
      </trkpt>
      <trkpt lat="45.35727" lon="5.74099">
        <ele>916</ele>
        <time>2021-12-14T20:40:45Z</time>
      </trkpt>
      <trkpt lat="45.35715" lon="5.74163">
        <ele>912</ele>
        <time>2021-12-14T20:41:22Z</time>
      </trkpt>
      <trkpt lat="45.35713" lon="5.74185">
        <ele>910</ele>
        <time>2021-12-14T20:41:35Z</time>
      </trkpt>
      <trkpt lat="45.35722" lon="5.7434">
        <ele>895</ele>
        <time>2021-12-14T20:43:02Z</time>
      </trkpt>
      <trkpt lat="45.35735" lon="5.74404">
        <ele>892</ele>
        <time>2021-12-14T20:43:40Z</time>
      </trkpt>
      <trkpt lat="45.35746" lon="5.74419">
        <ele>887</ele>
        <time>2021-12-14T20:43:52Z</time>
      </trkpt>
      <trkpt lat="45.3576" lon="5.74426">
        <ele>882</ele>
        <time>2021-12-14T20:44:04Z</time>
      </trkpt>
      <trkpt lat="45.35768" lon="5.74427">
        <ele>880</ele>
        <time>2021-12-14T20:44:10Z</time>
      </trkpt>
      <trkpt lat="45.35771" lon="5.74411">
        <ele>880</ele>
        <time>2021-12-14T20:44:19Z</time>
      </trkpt>
      <trkpt lat="45.35782" lon="5.74427">
        <ele>876</ele>
        <time>2021-12-14T20:44:32Z</time>
      </trkpt>
      <trkpt lat="45.35797" lon="5.74436">
        <ele>871</ele>
        <time>2021-12-14T20:44:45Z</time>
      </trkpt>
    </trkseg>
  </trk>
</gpx>